<?xml version="1.0" encoding="UTF-8" standalone="no" ?><gpx xmlns="http://www.topografix.com/GPX/1/1" xmlns:gpxx="http://www.garmin.com/xmlschemas/GpxExtensions/v3" xmlns:wptx1="http://www.garmin.com/xmlschemas/WaypointExtension/v1" xmlns:gpxtpx="http://www.garmin.com/xmlschemas/TrackPointExtension/v1" creator="GuideVTT.com" version="1.1" xmlns:xsi="http://www.w3.org/2001/XMLSchema-instance" xsi:schemaLocation="http://www.topografix.com/GPX/1/1 http://www.topografix.com/GPX/1/1/gpx.xsd http://www.garmin.com/xmlschemas/GpxExtensions/v3 http://www8.garmin.com/xmlschemas/GpxExtensionsv3.xsd http://www.garmin.com/xmlschemas/WaypointExtension/v1 http://www8.garmin.com/xmlschemas/WaypointExtensionv1.xsd http://www.garmin.com/xmlschemas/TrackPointExtension/v1 http://www.garmin.com/xmlschemas/TrackPointExtensionv1.xsd">
<metadata><link href="http://www.garmin.com"><text>Garmin International</text></link><time>2013-06-22T15:13:50Z</time></metadata>
<trk><name>chalet_ropraz_gt.gpx</name><extensions><gpxx:TrackExtension><gpxx:DisplayColor>Cyan</gpxx:DisplayColor></gpxx:TrackExtension></extensions><trkseg>
<trkpt lat="46.56450460664928" lon="6.689303973689675"><ele></ele><time>2017-9-12T3:8:56Z</time></trkpt>
<trkpt lat="46.56449940986931" lon="6.689278995618224"><ele></ele><time>2017-9-12T3:8:59Z</time></trkpt>
<trkpt lat="46.564499996602535" lon="6.689249575138092"><ele></ele><time>2017-9-12T3:9:2Z</time></trkpt>
<trkpt lat="46.5646262280643" lon="6.689190566539764"><ele></ele><time>2017-9-12T3:9:5Z</time></trkpt>
<trkpt lat="46.5646986477077" lon="6.689191740006208"><ele></ele><time>2017-9-12T3:9:8Z</time></trkpt>
<trkpt lat="46.56485547311604" lon="6.689484436064959"><ele></ele><time>2017-9-12T3:9:11Z</time></trkpt>
<trkpt lat="46.565059907734394" lon="6.690261270850897"><ele></ele><time>2017-9-12T3:9:14Z</time></trkpt>
<trkpt lat="46.56523659825325" lon="6.690755384042859"><ele></ele><time>2017-9-12T3:9:17Z</time></trkpt>
<trkpt lat="46.5653842035681" lon="6.691197864711285"><ele></ele><time>2017-9-12T3:9:20Z</time></trkpt>
<trkpt lat="46.565501634031534" lon="6.691501038148999"><ele></ele><time>2017-9-12T3:9:23Z</time></trkpt>
<trkpt lat="46.56554010696709" lon="6.691602123901248"><ele></ele><time>2017-9-12T3:9:26Z</time></trkpt>
<trkpt lat="46.56557782553136" lon="6.6917406767606735"><ele></ele><time>2017-9-12T3:9:29Z</time></trkpt>
<trkpt lat="46.565605737268925" lon="6.691870344802737"><ele></ele><time>2017-9-12T3:9:32Z</time></trkpt>
<trkpt lat="46.56563146971166" lon="6.6919992584735155"><ele></ele><time>2017-9-12T3:9:35Z</time></trkpt>
<trkpt lat="46.565672624856234" lon="6.692186594009399"><ele></ele><time>2017-9-12T3:9:38Z</time></trkpt>
<trkpt lat="46.565717132762074" lon="6.692389268428087"><ele></ele><time>2017-9-12T3:9:41Z</time></trkpt>
<trkpt lat="46.56583548523486" lon="6.69314774684608"><ele></ele><time>2017-9-12T3:9:44Z</time></trkpt>
<trkpt lat="46.56635415740311" lon="6.693459302186966"><ele></ele><time>2017-9-12T3:9:47Z</time></trkpt>
<trkpt lat="46.56682362779975" lon="6.6939017828553915"><ele></ele><time>2017-9-12T3:9:50Z</time></trkpt>
<trkpt lat="46.56685556285083" lon="6.69394226744771"><ele></ele><time>2017-9-12T3:9:53Z</time></trkpt>
<trkpt lat="46.56722394749522" lon="6.694330517202616"><ele></ele><time>2017-9-12T3:9:56Z</time></trkpt>
<trkpt lat="46.56747532077134" lon="6.694623297080398"><ele></ele><time>2017-9-12T3:9:59Z</time></trkpt>
<trkpt lat="46.56761487945914" lon="6.694758832454681"><ele></ele><time>2017-9-12T3:10:2Z</time></trkpt>
<trkpt lat="46.56776240095496" lon="6.694879028946161"><ele></ele><time>2017-9-12T3:10:5Z</time></trkpt>
<trkpt lat="46.567867593839765" lon="6.694949185475707"><ele></ele><time>2017-9-12T3:10:8Z</time></trkpt>
<trkpt lat="46.568015115335584" lon="6.695022443309426"><ele></ele><time>2017-9-12T3:10:11Z</time></trkpt>
<trkpt lat="46.568136317655444" lon="6.69505437836051"><ele></ele><time>2017-9-12T3:10:14Z</time></trkpt>
<trkpt lat="46.56833739951253" lon="6.6950703877955675"><ele></ele><time>2017-9-12T3:10:17Z</time></trkpt>
<trkpt lat="46.56846832484007" lon="6.695071058347821"><ele></ele><time>2017-9-12T3:10:20Z</time></trkpt>
<trkpt lat="46.56865390017629" lon="6.695053372532129"><ele></ele><time>2017-9-12T3:10:23Z</time></trkpt>
<trkpt lat="46.56895196065307" lon="6.6950365249067545"><ele></ele><time>2017-9-12T3:10:26Z</time></trkpt>
<trkpt lat="46.569507932290435" lon="6.695071896538138"><ele></ele><time>2017-9-12T3:10:29Z</time></trkpt>
<trkpt lat="46.56980616040528" lon="6.695121098309755"><ele></ele><time>2017-9-12T3:10:32Z</time></trkpt>
<trkpt lat="46.5700744651258" lon="6.695161918178201"><ele></ele><time>2017-9-12T3:10:35Z</time></trkpt>
<trkpt lat="46.570404544472694" lon="6.695216652005911"><ele></ele><time>2017-9-12T3:10:38Z</time></trkpt>
<trkpt lat="46.57057620584965" lon="6.695383116602898"><ele></ele><time>2017-9-12T3:10:41Z</time></trkpt>
<trkpt lat="46.570611493662" lon="6.695425612851977"><ele></ele><time>2017-9-12T3:10:44Z</time></trkpt>
<trkpt lat="46.57097158022225" lon="6.695792153477669"><ele></ele><time>2017-9-12T3:10:47Z</time></trkpt>
<trkpt lat="46.5715145599097" lon="6.695989714935422"><ele></ele><time>2017-9-12T3:10:50Z</time></trkpt>
<trkpt lat="46.5720965154469" lon="6.696169842034578"><ele></ele><time>2017-9-12T3:10:53Z</time></trkpt>
<trkpt lat="46.57221604138613" lon="6.696230946108699"><ele></ele><time>2017-9-12T3:10:56Z</time></trkpt>
<trkpt lat="46.57234118320048" lon="6.696291547268629"><ele></ele><time>2017-9-12T3:10:59Z</time></trkpt>
<trkpt lat="46.572583839297295" lon="6.696405205875635"><ele></ele><time>2017-9-12T3:11:2Z</time></trkpt>
<trkpt lat="46.572811575606465" lon="6.696544513106346"><ele></ele><time>2017-9-12T3:11:5Z</time></trkpt>
<trkpt lat="46.572856083512306" lon="6.696587847545743"><ele></ele><time>2017-9-12T3:11:8Z</time></trkpt>
<trkpt lat="46.572902016341686" lon="6.69667954556644"><ele></ele><time>2017-9-12T3:11:11Z</time></trkpt>
<trkpt lat="46.572889778763056" lon="6.69684031046927"><ele></ele><time>2017-9-12T3:11:14Z</time></trkpt>
<trkpt lat="46.57277511432767" lon="6.697037620469928"><ele></ele><time>2017-9-12T3:11:17Z</time></trkpt>
<trkpt lat="46.572571601718664" lon="6.697452189400792"><ele></ele><time>2017-9-12T3:11:20Z</time></trkpt>
<trkpt lat="46.57241242937744" lon="6.6976935882121325"><ele></ele><time>2017-9-12T3:11:23Z</time></trkpt>
<trkpt lat="46.572194918990135" lon="6.698143696412444"><ele></ele><time>2017-9-12T3:11:26Z</time></trkpt>
<trkpt lat="46.57200054265559" lon="6.698604617267847"><ele></ele><time>2017-9-12T3:11:29Z</time></trkpt>
<trkpt lat="46.57170549966395" lon="6.699344320222735"><ele></ele><time>2017-9-12T3:11:32Z</time></trkpt>
<trkpt lat="46.5717217605561" lon="6.6994741559028625"><ele></ele><time>2017-9-12T3:11:35Z</time></trkpt>
<trkpt lat="46.57175646163523" lon="6.699636848643422"><ele></ele><time>2017-9-12T3:11:38Z</time></trkpt>
<trkpt lat="46.57175629399717" lon="6.699681608006358"><ele></ele><time>2017-9-12T3:11:41Z</time></trkpt>
<trkpt lat="46.57177548855543" lon="6.699829800054431"><ele></ele><time>2017-9-12T3:11:44Z</time></trkpt>
<trkpt lat="46.57194203697145" lon="6.700099529698491"><ele></ele><time>2017-9-12T3:11:47Z</time></trkpt>
<trkpt lat="46.57218159176409" lon="6.700347131118178"><ele></ele><time>2017-9-12T3:11:50Z</time></trkpt>
<trkpt lat="46.57222492620349" lon="6.700379149988294"><ele></ele><time>2017-9-12T3:11:53Z</time></trkpt>
<trkpt lat="46.57241653650999" lon="6.700452575460076"><ele></ele><time>2017-9-12T3:11:56Z</time></trkpt>
<trkpt lat="46.57245660200715" lon="6.7004746198654175"><ele></ele><time>2017-9-12T3:11:59Z</time></trkpt>
<trkpt lat="46.57254125922918" lon="6.700527174398303"><ele></ele><time>2017-9-12T3:12:2Z</time></trkpt>
<trkpt lat="46.57269347459078" lon="6.700701853260398"><ele></ele><time>2017-9-12T3:12:5Z</time></trkpt>
<trkpt lat="46.57281048595905" lon="6.700812494382262"><ele></ele><time>2017-9-12T3:12:8Z</time></trkpt>
<trkpt lat="46.57308725640178" lon="6.700942497700453"><ele></ele><time>2017-9-12T3:12:11Z</time></trkpt>
<trkpt lat="46.5734522882849" lon="6.701044756919146"><ele></ele><time>2017-9-12T3:12:14Z</time></trkpt>
<trkpt lat="46.57366359606385" lon="6.700862534344196"><ele></ele><time>2017-9-12T3:12:17Z</time></trkpt>
<trkpt lat="46.573804998770356" lon="6.700714509934187"><ele></ele><time>2017-9-12T3:12:20Z</time></trkpt>
<trkpt lat="46.57393768429756" lon="6.7006466165184975"><ele></ele><time>2017-9-12T3:12:23Z</time></trkpt>
<trkpt lat="46.57404279336333" lon="6.700647119432688"><ele></ele><time>2017-9-12T3:12:26Z</time></trkpt>
<trkpt lat="46.574135748669505" lon="6.700655333697796"><ele></ele><time>2017-9-12T3:12:29Z</time></trkpt>
<trkpt lat="46.57417003065348" lon="6.70078257098794"><ele></ele><time>2017-9-12T3:12:32Z</time></trkpt>
<trkpt lat="46.57416810281575" lon="6.700817523524165"><ele></ele><time>2017-9-12T3:12:35Z</time></trkpt>
<trkpt lat="46.57415611669421" lon="6.701083816587925"><ele></ele><time>2017-9-12T3:12:38Z</time></trkpt>
<trkpt lat="46.574120577424765" lon="6.701352288946509"><ele></ele><time>2017-9-12T3:12:41Z</time></trkpt>
<trkpt lat="46.57421160489321" lon="6.702102553099394"><ele></ele><time>2017-9-12T3:12:44Z</time></trkpt>
<trkpt lat="46.574233984574676" lon="6.702362727373838"><ele></ele><time>2017-9-12T3:12:47Z</time></trkpt>
<trkpt lat="46.57426742836833" lon="6.702492563053966"><ele></ele><time>2017-9-12T3:12:50Z</time></trkpt>
<trkpt lat="46.574101969599724" lon="6.703246347606182"><ele></ele><time>2017-9-12T3:12:53Z</time></trkpt>
<trkpt lat="46.57405159436166" lon="6.703320862725377"><ele></ele><time>2017-9-12T3:12:56Z</time></trkpt>
<trkpt lat="46.573913963511586" lon="6.703816568478942"><ele></ele><time>2017-9-12T3:12:59Z</time></trkpt>
<trkpt lat="46.57387305982411" lon="6.703970963135362"><ele></ele><time>2017-9-12T3:13:2Z</time></trkpt>
<trkpt lat="46.573823438957334" lon="6.704079760238528"><ele></ele><time>2017-9-12T3:13:5Z</time></trkpt>
<trkpt lat="46.573785552755" lon="6.704234406352043"><ele></ele><time>2017-9-12T3:13:8Z</time></trkpt>
<trkpt lat="46.57370265573263" lon="6.704456526786089"><ele></ele><time>2017-9-12T3:13:11Z</time></trkpt>
<trkpt lat="46.5735973790288" lon="6.704657189548016"><ele></ele><time>2017-9-12T3:13:14Z</time></trkpt>
<trkpt lat="46.57346310093999" lon="6.7049455270171165"><ele></ele><time>2017-9-12T3:13:17Z</time></trkpt>
<trkpt lat="46.573426220566034" lon="6.705034794285893"><ele></ele><time>2017-9-12T3:13:20Z</time></trkpt>
<trkpt lat="46.57341783866286" lon="6.7050533182919025"><ele></ele><time>2017-9-12T3:13:23Z</time></trkpt>
<trkpt lat="46.573410630226135" lon="6.70509179122746"><ele></ele><time>2017-9-12T3:13:26Z</time></trkpt>
<trkpt lat="46.57336578704417" lon="6.705257082358003"><ele></ele><time>2017-9-12T3:13:29Z</time></trkpt>
<trkpt lat="46.57339462079108" lon="6.705694869160652"><ele></ele><time>2017-9-12T3:13:32Z</time></trkpt>
<trkpt lat="46.5735125541687" lon="6.706216391175985"><ele></ele><time>2017-9-12T3:13:35Z</time></trkpt>
<trkpt lat="46.5735231153667" lon="6.706272047013044"><ele></ele><time>2017-9-12T3:13:38Z</time></trkpt>
<trkpt lat="46.573735596612096" lon="6.706693489104509"><ele></ele><time>2017-9-12T3:13:41Z</time></trkpt>
<trkpt lat="46.57372218556702" lon="6.706863725557923"><ele></ele><time>2017-9-12T3:13:44Z</time></trkpt>
<trkpt lat="46.57355630770326" lon="6.70764341019094"><ele></ele><time>2017-9-12T3:13:47Z</time></trkpt>
<trkpt lat="46.573725286871195" lon="6.708235424011946"><ele></ele><time>2017-9-12T3:13:50Z</time></trkpt>
<trkpt lat="46.57419609837234" lon="6.708545973524451"><ele></ele><time>2017-9-12T3:13:53Z</time></trkpt>
<trkpt lat="46.57436432316899" lon="6.708686286583543"><ele></ele><time>2017-9-12T3:13:56Z</time></trkpt>
<trkpt lat="46.57465257681906" lon="6.70894461683929"><ele></ele><time>2017-9-12T3:13:59Z</time></trkpt>
<trkpt lat="46.575172170996666" lon="6.709261620417237"><ele></ele><time>2017-9-12T3:14:2Z</time></trkpt>
<trkpt lat="46.57573292031884" lon="6.709550293162465"><ele></ele><time>2017-9-12T3:14:5Z</time></trkpt>
<trkpt lat="46.576276486739516" lon="6.709745172411203"><ele></ele><time>2017-9-12T3:14:8Z</time></trkpt>
<trkpt lat="46.57669449225068" lon="6.709880959242582"><ele></ele><time>2017-9-12T3:14:11Z</time></trkpt>
<trkpt lat="46.57682399265468" lon="6.709932843223214"><ele></ele><time>2017-9-12T3:14:14Z</time></trkpt>
<trkpt lat="46.57735666260123" lon="6.710123447701335"><ele></ele><time>2017-9-12T3:14:17Z</time></trkpt>
<trkpt lat="46.5777278970927" lon="6.710276501253247"><ele></ele><time>2017-9-12T3:14:20Z</time></trkpt>
<trkpt lat="46.57785261981189" lon="6.71034699305892"><ele></ele><time>2017-9-12T3:14:23Z</time></trkpt>
<trkpt lat="46.57838470302522" lon="6.710693417117"><ele></ele><time>2017-9-12T3:14:26Z</time></trkpt>
<trkpt lat="46.57886506989598" lon="6.711010672152042"><ele></ele><time>2017-9-12T3:14:29Z</time></trkpt>
<trkpt lat="46.57918534241617" lon="6.711188117042184"><ele></ele><time>2017-9-12T3:14:32Z</time></trkpt>
<trkpt lat="46.579306963831186" lon="6.711276127025485"><ele></ele><time>2017-9-12T3:14:35Z</time></trkpt>
<trkpt lat="46.57936463132501" lon="6.711313258856535"><ele></ele><time>2017-9-12T3:14:38Z</time></trkpt>
<trkpt lat="46.57938399352133" lon="6.711301356554031"><ele></ele><time>2017-9-12T3:14:41Z</time></trkpt>
<trkpt lat="46.579391453415155" lon="6.7112768813967705"><ele></ele><time>2017-9-12T3:14:44Z</time></trkpt>
<trkpt lat="46.57939673401415" lon="6.711272774264216"><ele></ele><time>2017-9-12T3:14:47Z</time></trkpt>
<trkpt lat="46.57939740456641" lon="6.711275791749358"><ele></ele><time>2017-9-12T3:14:50Z</time></trkpt>
<trkpt lat="46.57951131463051" lon="6.711502941325307"><ele></ele><time>2017-9-12T3:14:53Z</time></trkpt>
<trkpt lat="46.579562947154045" lon="6.7116158455610275"><ele></ele><time>2017-9-12T3:14:56Z</time></trkpt>
<trkpt lat="46.57966093160212" lon="6.711828913539648"><ele></ele><time>2017-9-12T3:14:59Z</time></trkpt>
<trkpt lat="46.57973083667457" lon="6.71198389492929"><ele></ele><time>2017-9-12T3:15:2Z</time></trkpt>
<trkpt lat="46.57977559603751" lon="6.7120929434895515"><ele></ele><time>2017-9-12T3:15:5Z</time></trkpt>
<trkpt lat="46.57982303760946" lon="6.71222579665482"><ele></ele><time>2017-9-12T3:15:8Z</time></trkpt>
<trkpt lat="46.57988238148391" lon="6.712340461090207"><ele></ele><time>2017-9-12T3:15:11Z</time></trkpt>
<trkpt lat="46.57993007451296" lon="6.712474320083857"><ele></ele><time>2017-9-12T3:15:14Z</time></trkpt>
<trkpt lat="46.57998003065586" lon="6.712611615657806"><ele></ele><time>2017-9-12T3:15:17Z</time></trkpt>
<trkpt lat="46.58003275282681" lon="6.712737176567316"><ele></ele><time>2017-9-12T3:15:20Z</time></trkpt>
<trkpt lat="46.58015630207956" lon="6.712989639490843"><ele></ele><time>2017-9-12T3:15:23Z</time></trkpt>
<trkpt lat="46.58037515357137" lon="6.713484339416027"><ele></ele><time>2017-9-12T3:15:26Z</time></trkpt>
<trkpt lat="46.580589059740305" lon="6.714222868904471"><ele></ele><time>2017-9-12T3:15:29Z</time></trkpt>
<trkpt lat="46.580647733062506" lon="6.714686723425984"><ele></ele><time>2017-9-12T3:15:32Z</time></trkpt>
<trkpt lat="46.580663323402405" lon="6.714855870231986"><ele></ele><time>2017-9-12T3:15:35Z</time></trkpt>
<trkpt lat="46.5807655826211" lon="6.7153039667755365"><ele></ele><time>2017-9-12T3:15:38Z</time></trkpt>
<trkpt lat="46.58085904084146" lon="6.715760780498385"><ele></ele><time>2017-9-12T3:15:41Z</time></trkpt>
<trkpt lat="46.58094411715865" lon="6.7159259878098965"><ele></ele><time>2017-9-12T3:15:44Z</time></trkpt>
<trkpt lat="46.580958450213075" lon="6.715936968103051"><ele></ele><time>2017-9-12T3:15:47Z</time></trkpt>
<trkpt lat="46.580969179049134" lon="6.715933447703719"><ele></ele><time>2017-9-12T3:15:50Z</time></trkpt>
<trkpt lat="46.58098409883678" lon="6.715931436046958"><ele></ele><time>2017-9-12T3:15:53Z</time></trkpt>
<trkpt lat="46.58099968917668" lon="6.7159259878098965"><ele></ele><time>2017-9-12T3:15:56Z</time></trkpt>
<trkpt lat="46.58101335167885" lon="6.715943841263652"><ele></ele><time>2017-9-12T3:15:59Z</time></trkpt>
<trkpt lat="46.58133890479803" lon="6.716559575870633"><ele></ele><time>2017-9-12T3:16:2Z</time></trkpt>
<trkpt lat="46.58148785121739" lon="6.71689854003489"><ele></ele><time>2017-9-12T3:16:5Z</time></trkpt>
<trkpt lat="46.58170402050018" lon="6.717350240796804"><ele></ele><time>2017-9-12T3:16:8Z</time></trkpt>
<trkpt lat="46.58200426027179" lon="6.718004448339343"><ele></ele><time>2017-9-12T3:16:11Z</time></trkpt>
<trkpt lat="46.58220123499632" lon="6.718459585681558"><ele></ele><time>2017-9-12T3:16:14Z</time></trkpt>
<trkpt lat="46.58225161023438" lon="6.718613225966692"><ele></ele><time>2017-9-12T3:16:17Z</time></trkpt>
<trkpt lat="46.58228354528546" lon="6.718637198209763"><ele></ele><time>2017-9-12T3:16:20Z</time></trkpt>
<trkpt lat="46.58234640955925" lon="6.7187620885670185"><ele></ele><time>2017-9-12T3:16:23Z</time></trkpt>
<trkpt lat="46.58242377452552" lon="6.718933330848813"><ele></ele><time>2017-9-12T3:16:26Z</time></trkpt>
<trkpt lat="46.58276709727943" lon="6.719553004950285"><ele></ele><time>2017-9-12T3:16:29Z</time></trkpt>
<trkpt lat="46.582799116149545" lon="6.719633135944605"><ele></ele><time>2017-9-12T3:16:32Z</time></trkpt>
<trkpt lat="46.58314621075988" lon="6.720207883045077"><ele></ele><time>2017-9-12T3:16:35Z</time></trkpt>
<trkpt lat="46.58317512832582" lon="6.720321541652083"><ele></ele><time>2017-9-12T3:16:38Z</time></trkpt>
<trkpt lat="46.58308141864836" lon="6.720499154180288"><ele></ele><time>2017-9-12T3:16:41Z</time></trkpt>
<trkpt lat="46.58286625519395" lon="6.721074236556888"><ele></ele><time>2017-9-12T3:16:44Z</time></trkpt>
<trkpt lat="46.58267539925873" lon="6.721790386363864"><ele></ele><time>2017-9-12T3:16:47Z</time></trkpt>
<trkpt lat="46.58242100849748" lon="6.72260963357985"><ele></ele><time>2017-9-12T3:16:50Z</time></trkpt>
<trkpt lat="46.58227784559131" lon="6.723014144226909"><ele></ele><time>2017-9-12T3:16:53Z</time></trkpt>
<trkpt lat="46.58208271488547" lon="6.723307510837913"><ele></ele><time>2017-9-12T3:16:56Z</time></trkpt>
<trkpt lat="46.58188666217029" lon="6.72345788218081"><ele></ele><time>2017-9-12T3:16:59Z</time></trkpt>
<trkpt lat="46.58181910403073" lon="6.7234904039651155"><ele></ele><time>2017-9-12T3:17:2Z</time></trkpt>
<trkpt lat="46.58149145543575" lon="6.7236382607370615"><ele></ele><time>2017-9-12T3:17:5Z</time></trkpt>
<trkpt lat="46.58133706077933" lon="6.724006058648229"><ele></ele><time>2017-9-12T3:17:8Z</time></trkpt>
<trkpt lat="46.58116305246949" lon="6.7247771099209785"><ele></ele><time>2017-9-12T3:17:11Z</time></trkpt>
<trkpt lat="46.58114980906248" lon="6.724885068833828"><ele></ele><time>2017-9-12T3:17:14Z</time></trkpt>
<trkpt lat="46.5811453666538" lon="6.725196288898587"><ele></ele><time>2017-9-12T3:17:17Z</time></trkpt>
<trkpt lat="46.581121226772666" lon="6.725713200867176"><ele></ele><time>2017-9-12T3:17:20Z</time></trkpt>
<trkpt lat="46.581038581207395" lon="6.725782100111246"><ele></ele><time>2017-9-12T3:17:23Z</time></trkpt>
<trkpt lat="46.5809830930084" lon="6.725831218063831"><ele></ele><time>2017-9-12T3:17:26Z</time></trkpt>
<trkpt lat="46.58086004666984" lon="6.725985109806061"><ele></ele><time>2017-9-12T3:17:29Z</time></trkpt>
<trkpt lat="46.580860465765" lon="6.726171355694532"><ele></ele><time>2017-9-12T3:17:32Z</time></trkpt>
<trkpt lat="46.58087220042944" lon="6.726281577721238"><ele></ele><time>2017-9-12T3:17:35Z</time></trkpt>
<trkpt lat="46.58085510134697" lon="6.726401187479496"><ele></ele><time>2017-9-12T3:17:38Z</time></trkpt>
<trkpt lat="46.58065787516534" lon="6.727162431925535"><ele></ele><time>2017-9-12T3:17:41Z</time></trkpt>
<trkpt lat="46.580496691167355" lon="6.7276297230273485"><ele></ele><time>2017-9-12T3:17:44Z</time></trkpt>
<trkpt lat="46.58037297427654" lon="6.728067426010966"><ele></ele><time>2017-9-12T3:17:47Z</time></trkpt>
<trkpt lat="46.58013551495969" lon="6.72858064994216"><ele></ele><time>2017-9-12T3:17:50Z</time></trkpt>
<trkpt lat="46.58008513972163" lon="6.728702438995242"><ele></ele><time>2017-9-12T3:17:53Z</time></trkpt>
<trkpt lat="46.58011347055435" lon="6.72870428301394"><ele></ele><time>2017-9-12T3:17:56Z</time></trkpt>
<trkpt lat="46.580118499696255" lon="6.728679472580552"><ele></ele><time>2017-9-12T3:17:59Z</time></trkpt>
<trkpt lat="46.58012696541846" lon="6.728627923876047"><ele></ele><time>2017-9-12T3:18:2Z</time></trkpt>
<trkpt lat="46.580152194947004" lon="6.72857528552413"><ele></ele><time>2017-9-12T3:18:5Z</time></trkpt>
<trkpt lat="46.580247497186065" lon="6.728636138141155"><ele></ele><time>2017-9-12T3:18:8Z</time></trkpt>
<trkpt lat="46.58061814494431" lon="6.729208705946803"><ele></ele><time>2017-9-12T3:18:11Z</time></trkpt>
<trkpt lat="46.58097915351391" lon="6.72982620075345"><ele></ele><time>2017-9-12T3:18:14Z</time></trkpt>
<trkpt lat="46.58128945156932" lon="6.730491137132049"><ele></ele><time>2017-9-12T3:18:17Z</time></trkpt>
<trkpt lat="46.58159832470119" lon="6.7312191892415285"><ele></ele><time>2017-9-12T3:18:20Z</time></trkpt>
<trkpt lat="46.5816963929683" lon="6.7314524576067924"><ele></ele><time>2017-9-12T3:18:23Z</time></trkpt>
<trkpt lat="46.58192136324942" lon="6.732006752863526"><ele></ele><time>2017-9-12T3:18:26Z</time></trkpt>
<trkpt lat="46.582199139520526" lon="6.732585523277521"><ele></ele><time>2017-9-12T3:18:29Z</time></trkpt>
<trkpt lat="46.58230282366276" lon="6.732839494943619"><ele></ele><time>2017-9-12T3:18:32Z</time></trkpt>
<trkpt lat="46.582553358748555" lon="6.733550112694502"><ele></ele><time>2017-9-12T3:18:35Z</time></trkpt>
<trkpt lat="46.58286793157458" lon="6.734244888648391"><ele></ele><time>2017-9-12T3:18:38Z</time></trkpt>
<trkpt lat="46.58329054713249" lon="6.734543284401298"><ele></ele><time>2017-9-12T3:18:41Z</time></trkpt>
<trkpt lat="46.58341007307172" lon="6.7346968408674"><ele></ele><time>2017-9-12T3:18:44Z</time></trkpt>
<trkpt lat="46.58374048769474" lon="6.735309474170208"><ele></ele><time>2017-9-12T3:18:47Z</time></trkpt>
<trkpt lat="46.5839150827378" lon="6.735617844387889"><ele></ele><time>2017-9-12T3:18:50Z</time></trkpt>
<trkpt lat="46.58424918539822" lon="6.736318487673998"><ele></ele><time>2017-9-12T3:18:53Z</time></trkpt>
<trkpt lat="46.5845800191164" lon="6.736975461244583"><ele></ele><time>2017-9-12T3:18:56Z</time></trkpt>
<trkpt lat="46.58493323251605" lon="6.737506706267595"><ele></ele><time>2017-9-12T3:18:59Z</time></trkpt>
<trkpt lat="46.585131883621216" lon="6.7376848217099905"><ele></ele><time>2017-9-12T3:19:2Z</time></trkpt>
<trkpt lat="46.585499849170446" lon="6.738110454753041"><ele></ele><time>2017-9-12T3:19:5Z</time></trkpt>
<trkpt lat="46.58598490990698" lon="6.738467188552022"><ele></ele><time>2017-9-12T3:19:8Z</time></trkpt>
<trkpt lat="46.586069483309984" lon="6.738499375060201"><ele></ele><time>2017-9-12T3:19:11Z</time></trkpt>
<trkpt lat="46.58609865233302" lon="6.738496273756027"><ele></ele><time>2017-9-12T3:19:14Z</time></trkpt>
<trkpt lat="46.58622823655605" lon="6.738440869376063"><ele></ele><time>2017-9-12T3:19:17Z</time></trkpt>
<trkpt lat="46.58646552823484" lon="6.7381899151951075"><ele></ele><time>2017-9-12T3:19:20Z</time></trkpt>
<trkpt lat="46.58656124956906" lon="6.738158231601119"><ele></ele><time>2017-9-12T3:19:23Z</time></trkpt>
<trkpt lat="46.586626125499606" lon="6.7380603309720755"><ele></ele><time>2017-9-12T3:19:26Z</time></trkpt>
<trkpt lat="46.58677004277706" lon="6.737688258290291"><ele></ele><time>2017-9-12T3:19:29Z</time></trkpt>
<trkpt lat="46.5868922509253" lon="6.7375661339610815"><ele></ele><time>2017-9-12T3:19:32Z</time></trkpt>
<trkpt lat="46.586990570649505" lon="6.737498827278614"><ele></ele><time>2017-9-12T3:19:35Z</time></trkpt>
<trkpt lat="46.58714144490659" lon="6.737446608021855"><ele></ele><time>2017-9-12T3:19:38Z</time></trkpt>
<trkpt lat="46.587233478203416" lon="6.737443506717682"><ele></ele><time>2017-9-12T3:19:41Z</time></trkpt>
<trkpt lat="46.587279411032796" lon="6.737441746518016"><ele></ele><time>2017-9-12T3:19:44Z</time></trkpt>
<trkpt lat="46.587359458208084" lon="6.737407129257917"><ele></ele><time>2017-9-12T3:19:47Z</time></trkpt>
<trkpt lat="46.58750111237168" lon="6.737416852265596"><ele></ele><time>2017-9-12T3:19:50Z</time></trkpt>
<trkpt lat="46.587672773748636" lon="6.7375569976866245"><ele></ele><time>2017-9-12T3:19:53Z</time></trkpt>
<trkpt lat="46.587936552241445" lon="6.737860171124339"><ele></ele><time>2017-9-12T3:19:56Z</time></trkpt>
<trkpt lat="46.58837718889117" lon="6.73838060349226"><ele></ele><time>2017-9-12T3:19:59Z</time></trkpt>
<trkpt lat="46.58881681971252" lon="6.738903885707259"><ele></ele><time>2017-9-12T3:20:2Z</time></trkpt>
<trkpt lat="46.58897381275892" lon="6.739063393324614"><ele></ele><time>2017-9-12T3:20:5Z</time></trkpt>
<trkpt lat="46.589458705857396" lon="6.739198509603739"><ele></ele><time>2017-9-12T3:20:8Z</time></trkpt>
<trkpt lat="46.58973438665271" lon="6.739362794905901"><ele></ele><time>2017-9-12T3:20:11Z</time></trkpt>
<trkpt lat="46.589875873178244" lon="6.739454157650471"><ele></ele><time>2017-9-12T3:20:14Z</time></trkpt>
<trkpt lat="46.59033654257655" lon="6.739992192015052"><ele></ele><time>2017-9-12T3:20:17Z</time></trkpt>
<trkpt lat="46.590786315500736" lon="6.740534417331219"><ele></ele><time>2017-9-12T3:20:20Z</time></trkpt>
<trkpt lat="46.59082671627402" lon="6.74057406373322"><ele></ele><time>2017-9-12T3:20:23Z</time></trkpt>
<trkpt lat="46.590987145900726" lon="6.7407376784831285"><ele></ele><time>2017-9-12T3:20:26Z</time></trkpt>
<trkpt lat="46.59112460911274" lon="6.740884026512504"><ele></ele><time>2017-9-12T3:20:29Z</time></trkpt>
<trkpt lat="46.59121563658118" lon="6.740961894392967"><ele></ele><time>2017-9-12T3:20:32Z</time></trkpt>
<trkpt lat="46.59128009341657" lon="6.741010509431362"><ele></ele><time>2017-9-12T3:20:35Z</time></trkpt>
<trkpt lat="46.591338347643614" lon="6.741042695939541"><ele></ele><time>2017-9-12T3:20:38Z</time></trkpt>
<trkpt lat="46.59138939343393" lon="6.741065913811326"><ele></ele><time>2017-9-12T3:20:41Z</time></trkpt>
<trkpt lat="46.59145728684962" lon="6.74112131819129"><ele></ele><time>2017-9-12T3:20:44Z</time></trkpt>
<trkpt lat="46.59157966263592" lon="6.741245286539197"><ele></ele><time>2017-9-12T3:20:47Z</time></trkpt>
<trkpt lat="46.59166398458183" lon="6.741350144147873"><ele></ele><time>2017-9-12T3:20:50Z</time></trkpt>
<trkpt lat="46.59183355048299" lon="6.741560529917479"><ele></ele><time>2017-9-12T3:20:53Z</time></trkpt>
<trkpt lat="46.59215566702187" lon="6.741879126057029"><ele></ele><time>2017-9-12T3:20:56Z</time></trkpt>
<trkpt lat="46.59256990067661" lon="6.742184143513441"><ele></ele><time>2017-9-12T3:20:59Z</time></trkpt>
<trkpt lat="46.593068204820156" lon="6.7424956150352955"><ele></ele><time>2017-9-12T3:21:2Z</time></trkpt>
<trkpt lat="46.59356726333499" lon="6.7427324037998915"><ele></ele><time>2017-9-12T3:21:5Z</time></trkpt>
<trkpt lat="46.59414125606418" lon="6.742955781519413"><ele></ele><time>2017-9-12T3:21:8Z</time></trkpt>
<trkpt lat="46.594342505559325" lon="6.743029374629259"><ele></ele><time>2017-9-12T3:21:11Z</time></trkpt>
<trkpt lat="46.59446303732693" lon="6.743078073486686"><ele></ele><time>2017-9-12T3:21:14Z</time></trkpt>
<trkpt lat="46.59465121105313" lon="6.7427966091781855"><ele></ele><time>2017-9-12T3:21:17Z</time></trkpt>
<trkpt lat="46.59466227516532" lon="6.742714634165168"><ele></ele><time>2017-9-12T3:21:20Z</time></trkpt>
<trkpt lat="46.59468239173293" lon="6.742535931989551"><ele></ele><time>2017-9-12T3:21:23Z</time></trkpt>
<trkpt lat="46.59472078084946" lon="6.742262681946158"><ele></ele><time>2017-9-12T3:21:26Z</time></trkpt>
<trkpt lat="46.594823291525245" lon="6.741683827713132"><ele></ele><time>2017-9-12T3:21:29Z</time></trkpt>
<trkpt lat="46.59486570395529" lon="6.741434969007969"><ele></ele><time>2017-9-12T3:21:32Z</time></trkpt>
<trkpt lat="46.594894202426076" lon="6.7412680853158236"><ele></ele><time>2017-9-12T3:21:35Z</time></trkpt>
<trkpt lat="46.59492337144911" lon="6.741120899096131"><ele></ele><time>2017-9-12T3:21:38Z</time></trkpt>
<trkpt lat="46.59495304338634" lon="6.7410219088196754"><ele></ele><time>2017-9-12T3:21:41Z</time></trkpt>
<trkpt lat="46.59511372447014" lon="6.740808170288801"><ele></ele><time>2017-9-12T3:21:44Z</time></trkpt>
<trkpt lat="46.59551647491753" lon="6.740271309390664"><ele></ele><time>2017-9-12T3:21:47Z</time></trkpt>
<trkpt lat="46.595950573682785" lon="6.739842658862472"><ele></ele><time>2017-9-12T3:21:50Z</time></trkpt>
<trkpt lat="46.59610832110047" lon="6.739702681079507"><ele></ele><time>2017-9-12T3:21:53Z</time></trkpt>
<trkpt lat="46.59642322920263" lon="6.73928014934063"><ele></ele><time>2017-9-12T3:21:56Z</time></trkpt>
<trkpt lat="46.59641987644136" lon="6.739013437181711"><ele></ele><time>2017-9-12T3:21:59Z</time></trkpt>
<trkpt lat="46.59638584591448" lon="6.738838506862521"><ele></ele><time>2017-9-12T3:22:2Z</time></trkpt>
<trkpt lat="46.59633379429579" lon="6.7386234272271395"><ele></ele><time>2017-9-12T3:22:5Z</time></trkpt>
<trkpt lat="46.596278389915824" lon="6.738381274044514"><ele></ele><time>2017-9-12T3:22:8Z</time></trkpt>
<trkpt lat="46.59623622894287" lon="6.738129397854209"><ele></ele><time>2017-9-12T3:22:11Z</time></trkpt>
<trkpt lat="46.596189038828015" lon="6.737922951579094"><ele></ele><time>2017-9-12T3:22:14Z</time></trkpt>
<trkpt lat="46.5961173735559" lon="6.737655820325017"><ele></ele><time>2017-9-12T3:22:17Z</time></trkpt>
<trkpt lat="46.59579827450216" lon="6.737455660477281"><ele></ele><time>2017-9-12T3:22:20Z</time></trkpt>
<trkpt lat="46.5955008007586" lon="6.737276371568441"><ele></ele><time>2017-9-12T3:22:23Z</time></trkpt>
<trkpt lat="46.59512344747782" lon="6.737094735726714"><ele></ele><time>2017-9-12T3:22:26Z</time></trkpt>
<trkpt lat="46.59460368566215" lon="6.736788125708699"><ele></ele><time>2017-9-12T3:22:29Z</time></trkpt>
<trkpt lat="46.59409498795867" lon="6.73649400472641"><ele></ele><time>2017-9-12T3:22:32Z</time></trkpt>
<trkpt lat="46.59360196441412" lon="6.736169122159481"><ele></ele><time>2017-9-12T3:22:35Z</time></trkpt>
<trkpt lat="46.59311447292566" lon="6.73574935644865"><ele></ele><time>2017-9-12T3:22:38Z</time></trkpt>
<trkpt lat="46.59264533780515" lon="6.735315760597587"><ele></ele><time>2017-9-12T3:22:41Z</time></trkpt>
<trkpt lat="46.59217016771436" lon="6.734925163909793"><ele></ele><time>2017-9-12T3:22:44Z</time></trkpt>
<trkpt lat="46.59169130958617" lon="6.734554432332516"><ele></ele><time>2017-9-12T3:22:47Z</time></trkpt>
<trkpt lat="46.59121613949537" lon="6.734152855351567"><ele></ele><time>2017-9-12T3:22:50Z</time></trkpt>
<trkpt lat="46.590753458440304" lon="6.733695371076465"><ele></ele><time>2017-9-12T3:22:53Z</time></trkpt>
<trkpt lat="46.59073778428137" lon="6.733197653666139"><ele></ele><time>2017-9-12T3:22:56Z</time></trkpt>
<trkpt lat="46.59101815894246" lon="6.732637658715248"><ele></ele><time>2017-9-12T3:22:59Z</time></trkpt>
<trkpt lat="46.59119828604162" lon="6.731889406219125"><ele></ele><time>2017-9-12T3:23:2Z</time></trkpt>
<trkpt lat="46.59130431711674" lon="6.731382133439183"><ele></ele><time>2017-9-12T3:23:5Z</time></trkpt>
<trkpt lat="46.5914770681411" lon="6.730633797124028"><ele></ele><time>2017-9-12T3:23:8Z</time></trkpt>
<trkpt lat="46.59156683832407" lon="6.7302437871694565"><ele></ele><time>2017-9-12T3:23:11Z</time></trkpt>
<trkpt lat="46.59205709584057" lon="6.729840533807874"><ele></ele><time>2017-9-12T3:23:14Z</time></trkpt>
<trkpt lat="46.59212574362755" lon="6.729574827477336"><ele></ele><time>2017-9-12T3:23:17Z</time></trkpt>
<trkpt lat="46.59217335283756" lon="6.729444321244955"><ele></ele><time>2017-9-12T3:23:20Z</time></trkpt>
<trkpt lat="46.59248951822519" lon="6.729662250727415"><ele></ele><time>2017-9-12T3:23:23Z</time></trkpt>
<trkpt lat="46.59274977631867" lon="6.730208415538073"><ele></ele><time>2017-9-12T3:23:26Z</time></trkpt>
<trkpt lat="46.592939710244536" lon="6.730334144085646"><ele></ele><time>2017-9-12T3:23:29Z</time></trkpt>
<trkpt lat="46.59314506687224" lon="6.73027329146862"><ele></ele><time>2017-9-12T3:23:32Z</time></trkpt>
<trkpt lat="46.593304658308625" lon="6.730116130784154"><ele></ele><time>2017-9-12T3:23:35Z</time></trkpt>
<trkpt lat="46.59345578402281" lon="6.72990876249969"><ele></ele><time>2017-9-12T3:23:38Z</time></trkpt>
<trkpt lat="46.59355896525085" lon="6.72972209751606"><ele></ele><time>2017-9-12T3:23:41Z</time></trkpt>
<trkpt lat="46.59369776956737" lon="6.729480447247624"><ele></ele><time>2017-9-12T3:23:44Z</time></trkpt>
<trkpt lat="46.59406531602144" lon="6.728862449526787"><ele></ele><time>2017-9-12T3:23:47Z</time></trkpt>
<trkpt lat="46.594428922981024" lon="6.728243362158537"><ele></ele><time>2017-9-12T3:23:50Z</time></trkpt>
<trkpt lat="46.59456948749721" lon="6.727477004751563"><ele></ele><time>2017-9-12T3:23:53Z</time></trkpt>
<trkpt lat="46.594534954056144" lon="6.726689860224724"><ele></ele><time>2017-9-12T3:23:56Z</time></trkpt>
<trkpt lat="46.594493966549635" lon="6.72618736512959"><ele></ele><time>2017-9-12T3:23:59Z</time></trkpt>
<trkpt lat="46.594416266307235" lon="6.725709596648812"><ele></ele><time>2017-9-12T3:24:2Z</time></trkpt>
<trkpt lat="46.594394221901894" lon="6.72533911652863"><ele></ele><time>2017-9-12T3:24:5Z</time></trkpt>
<trkpt lat="46.594386929646134" lon="6.725180028006434"><ele></ele><time>2017-9-12T3:24:8Z</time></trkpt>
<trkpt lat="46.59440218470991" lon="6.725142225623131"><ele></ele><time>2017-9-12T3:24:11Z</time></trkpt>
<trkpt lat="46.59440469928086" lon="6.725126132369041"><ele></ele><time>2017-9-12T3:24:14Z</time></trkpt>
<trkpt lat="46.59443160519004" lon="6.725073913112283"><ele></ele><time>2017-9-12T3:24:17Z</time></trkpt>
<trkpt lat="46.594383576884866" lon="6.725056730210781"><ele></ele><time>2017-9-12T3:24:20Z</time></trkpt>
<trkpt lat="46.594391288235784" lon="6.724857660010457"><ele></ele><time>2017-9-12T3:24:23Z</time></trkpt>
<trkpt lat="46.59455758519471" lon="6.7240779753774405"><ele></ele><time>2017-9-12T3:24:26Z</time></trkpt>
<trkpt lat="46.594636123627424" lon="6.723749069496989"><ele></ele><time>2017-9-12T3:24:29Z</time></trkpt>
<trkpt lat="46.594747602939606" lon="6.723143896088004"><ele></ele><time>2017-9-12T3:24:32Z</time></trkpt>
<trkpt lat="46.59482790157199" lon="6.722356835380197"><ele></ele><time>2017-9-12T3:24:35Z</time></trkpt>
<trkpt lat="46.594914738088846" lon="6.721739089116454"><ele></ele><time>2017-9-12T3:24:38Z</time></trkpt>
<trkpt lat="46.594971818849444" lon="6.72091456130147"><ele></ele><time>2017-9-12T3:24:41Z</time></trkpt>
<trkpt lat="46.5949603356421" lon="6.720604347065091"><ele></ele><time>2017-9-12T3:24:44Z</time></trkpt>
<trkpt lat="46.5950311627239" lon="6.72052463516593"><ele></ele><time>2017-9-12T3:24:47Z</time></trkpt>
<trkpt lat="46.59512160345912" lon="6.720451461151242"><ele></ele><time>2017-9-12T3:24:50Z</time></trkpt>
<trkpt lat="46.595113053917885" lon="6.72037560492754"><ele></ele><time>2017-9-12T3:24:53Z</time></trkpt>
<trkpt lat="46.595106180757284" lon="6.720364708453417"><ele></ele><time>2017-9-12T3:24:56Z</time></trkpt>
<trkpt lat="46.595066701993346" lon="6.720295390114188"><ele></ele><time>2017-9-12T3:24:59Z</time></trkpt>
<trkpt lat="46.59495631232858" lon="6.720255995169282"><ele></ele><time>2017-9-12T3:25:2Z</time></trkpt>
<trkpt lat="46.59494373947382" lon="6.72025004401803"><ele></ele><time>2017-9-12T3:25:5Z</time></trkpt>
<trkpt lat="46.59487274475396" lon="6.720145773142576"><ele></ele><time>2017-9-12T3:25:8Z</time></trkpt>
<trkpt lat="46.59463142976165" lon="6.719359969720244"><ele></ele><time>2017-9-12T3:25:11Z</time></trkpt>
<trkpt lat="46.59452581778169" lon="6.718958728015423"><ele></ele><time>2017-9-12T3:25:14Z</time></trkpt>
<trkpt lat="46.59444258548319" lon="6.71862387098372"><ele></ele><time>2017-9-12T3:25:17Z</time></trkpt>
<trkpt lat="46.594390366226435" lon="6.718394961208105"><ele></ele><time>2017-9-12T3:25:20Z</time></trkpt>
<trkpt lat="46.59432423301041" lon="6.718125147745013"><ele></ele><time>2017-9-12T3:25:23Z</time></trkpt>
<trkpt lat="46.594258518889546" lon="6.71757722273469"><ele></ele><time>2017-9-12T3:25:26Z</time></trkpt>
<trkpt lat="46.59436957910657" lon="6.716803070157766"><ele></ele><time>2017-9-12T3:25:29Z</time></trkpt>
<trkpt lat="46.59457124769688" lon="6.716463519260287"><ele></ele><time>2017-9-12T3:25:32Z</time></trkpt>
<trkpt lat="46.59469152800739" lon="6.716337539255619"><ele></ele><time>2017-9-12T3:25:35Z</time></trkpt>
<trkpt lat="46.59494407474995" lon="6.716050459071994"><ele></ele><time>2017-9-12T3:25:38Z</time></trkpt>
<trkpt lat="46.59501515328884" lon="6.715936046093702"><ele></ele><time>2017-9-12T3:25:41Z</time></trkpt>
<trkpt lat="46.59528815187514" lon="6.715997653082013"><ele></ele><time>2017-9-12T3:25:44Z</time></trkpt>
<trkpt lat="46.59583649598062" lon="6.716084908694029"><ele></ele><time>2017-9-12T3:25:47Z</time></trkpt>
<trkpt lat="46.59589449875057" lon="6.716120028868318"><ele></ele><time>2017-9-12T3:25:50Z</time></trkpt>
<trkpt lat="46.5962553396821" lon="6.716319937258959"><ele></ele><time>2017-9-12T3:25:53Z</time></trkpt>
<trkpt lat="46.596539402380586" lon="6.716588996350765"><ele></ele><time>2017-9-12T3:25:56Z</time></trkpt>
<trkpt lat="46.59704784862697" lon="6.717102052643895"><ele></ele><time>2017-9-12T3:25:59Z</time></trkpt>
<trkpt lat="46.59754439257085" lon="6.717660455033183"><ele></ele><time>2017-9-12T3:26:2Z</time></trkpt>
<trkpt lat="46.597925098612905" lon="6.7182437516748905"><ele></ele><time>2017-9-12T3:26:5Z</time></trkpt>
<trkpt lat="46.59821595065296" lon="6.719060819596052"><ele></ele><time>2017-9-12T3:26:8Z</time></trkpt>
<trkpt lat="46.598478220403194" lon="6.719833966344595"><ele></ele><time>2017-9-12T3:26:11Z</time></trkpt>
<trkpt lat="46.598527925089" lon="6.720018200576305"><ele></ele><time>2017-9-12T3:26:14Z</time></trkpt>
<trkpt lat="46.598506132140756" lon="6.720618512481451"><ele></ele><time>2017-9-12T3:26:17Z</time></trkpt>
<trkpt lat="46.59848350100219" lon="6.720739295706153"><ele></ele><time>2017-9-12T3:26:20Z</time></trkpt>
<trkpt lat="46.59841108135879" lon="6.721313036978245"><ele></ele><time>2017-9-12T3:26:23Z</time></trkpt>
<trkpt lat="46.598445530980825" lon="6.72166658565402"><ele></ele><time>2017-9-12T3:26:26Z</time></trkpt>
<trkpt lat="46.59868659451604" lon="6.722109066322446"><ele></ele><time>2017-9-12T3:26:29Z</time></trkpt>
<trkpt lat="46.59899798221886" lon="6.722869221121073"><ele></ele><time>2017-9-12T3:26:32Z</time></trkpt>
<trkpt lat="46.599082639440894" lon="6.723589561879635"><ele></ele><time>2017-9-12T3:26:35Z</time></trkpt>
<trkpt lat="46.599062103778124" lon="6.723918383941054"><ele></ele><time>2017-9-12T3:26:38Z</time></trkpt>
<trkpt lat="46.59866580739617" lon="6.724340915679932"><ele></ele><time>2017-9-12T3:26:41Z</time></trkpt>
<trkpt lat="46.5984763763845" lon="6.724519450217485"><ele></ele><time>2017-9-12T3:26:44Z</time></trkpt>
<trkpt lat="46.59845299087465" lon="6.725061843171716"><ele></ele><time>2017-9-12T3:26:47Z</time></trkpt>
<trkpt lat="46.598540749400854" lon="6.725488901138306"><ele></ele><time>2017-9-12T3:26:50Z</time></trkpt>
<trkpt lat="46.5985765401274" lon="6.725783022120595"><ele></ele><time>2017-9-12T3:26:53Z</time></trkpt>
<trkpt lat="46.59852926619351" lon="6.726075634360313"><ele></ele><time>2017-9-12T3:26:56Z</time></trkpt>
<trkpt lat="46.598470928147435" lon="6.726208822801709"><ele></ele><time>2017-9-12T3:26:59Z</time></trkpt>
<trkpt lat="46.59824771806598" lon="6.726938132196665"><ele></ele><time>2017-9-12T3:27:2Z</time></trkpt>
<trkpt lat="46.59816825762391" lon="6.727313976734877"><ele></ele><time>2017-9-12T3:27:5Z</time></trkpt>
<trkpt lat="46.59807236865163" lon="6.727705495432019"><ele></ele><time>2017-9-12T3:27:8Z</time></trkpt>
<trkpt lat="46.59787262789905" lon="6.728491298854351"><ele></ele><time>2017-9-12T3:27:11Z</time></trkpt>
<trkpt lat="46.59784731455147" lon="6.728682657703757"><ele></ele><time>2017-9-12T3:27:14Z</time></trkpt>
<trkpt lat="46.59802199341357" lon="6.729257823899388"><ele></ele><time>2017-9-12T3:27:17Z</time></trkpt>
<trkpt lat="46.59836967475712" lon="6.729906164109707"><ele></ele><time>2017-9-12T3:27:20Z</time></trkpt>
<trkpt lat="46.598530523478985" lon="6.730199698358774"><ele></ele><time>2017-9-12T3:27:23Z</time></trkpt>
<trkpt lat="46.59886169247329" lon="6.730843260884285"><ele></ele><time>2017-9-12T3:27:26Z</time></trkpt>
<trkpt lat="46.599091943353415" lon="6.73127006739378"><ele></ele><time>2017-9-12T3:27:29Z</time></trkpt>
<trkpt lat="46.599421855062246" lon="6.731534181162715"><ele></ele><time>2017-9-12T3:27:32Z</time></trkpt>
<trkpt lat="46.59993667155504" lon="6.73181195743382"><ele></ele><time>2017-9-12T3:27:35Z</time></trkpt>
<trkpt lat="46.60050974227488" lon="6.732127033174038"><ele></ele><time>2017-9-12T3:27:38Z</time></trkpt>
<trkpt lat="46.60102028399706" lon="6.732485610991716"><ele></ele><time>2017-9-12T3:27:41Z</time></trkpt>
<trkpt lat="46.6014982201159" lon="6.73299690708518"><ele></ele><time>2017-9-12T3:27:44Z</time></trkpt>
<trkpt lat="46.60170768387616" lon="6.733245514333248"><ele></ele><time>2017-9-12T3:27:47Z</time></trkpt>
<trkpt lat="46.60209744237363" lon="6.733786063268781"><ele></ele><time>2017-9-12T3:27:50Z</time></trkpt>
<trkpt lat="46.60241302102804" lon="6.734520737081766"><ele></ele><time>2017-9-12T3:27:53Z</time></trkpt>
<trkpt lat="46.602481082081795" lon="6.734787197783589"><ele></ele><time>2017-9-12T3:27:56Z</time></trkpt>
<trkpt lat="46.60252592526376" lon="6.734917368739843"><ele></ele><time>2017-9-12T3:27:59Z</time></trkpt>
<trkpt lat="46.60290998406708" lon="6.7356600891798735"><ele></ele><time>2017-9-12T3:28:2Z</time></trkpt>
<trkpt lat="46.6032390575856" lon="6.736189741641283"><ele></ele><time>2017-9-12T3:28:5Z</time></trkpt>
<trkpt lat="46.603699726983905" lon="6.736774295568466"><ele></ele><time>2017-9-12T3:28:8Z</time></trkpt>
<trkpt lat="46.603998793289065" lon="6.737172016873956"><ele></ele><time>2017-9-12T3:28:11Z</time></trkpt>
<trkpt lat="46.60447647795081" lon="6.737776519730687"><ele></ele><time>2017-9-12T3:28:14Z</time></trkpt>
<trkpt lat="46.6049693338573" lon="6.73832830041647"><ele></ele><time>2017-9-12T3:28:17Z</time></trkpt>
<trkpt lat="46.605467051267624" lon="6.738772206008434"><ele></ele><time>2017-9-12T3:28:20Z</time></trkpt>
<trkpt lat="46.60593342036009" lon="6.7391974199563265"><ele></ele><time>2017-9-12T3:28:23Z</time></trkpt>
<trkpt lat="46.606082282960415" lon="6.739326333627105"><ele></ele><time>2017-9-12T3:28:26Z</time></trkpt>
<trkpt lat="46.606171047315" lon="6.739403698593378"><ele></ele><time>2017-9-12T3:28:29Z</time></trkpt>
<trkpt lat="46.60617574118078" lon="6.739392215386033"><ele></ele><time>2017-9-12T3:28:32Z</time></trkpt>
<trkpt lat="46.60613517276943" lon="6.739328345283866"><ele></ele><time>2017-9-12T3:28:35Z</time></trkpt>
<trkpt lat="46.60608043894172" lon="6.739284507930279"><ele></ele><time>2017-9-12T3:28:38Z</time></trkpt>
<trkpt lat="46.60597206093371" lon="6.739142686128616"><ele></ele><time>2017-9-12T3:28:41Z</time></trkpt>
<trkpt lat="46.60590668208897" lon="6.738943113014102"><ele></ele><time>2017-9-12T3:28:44Z</time></trkpt>
<trkpt lat="46.6058258805424" lon="6.738359900191426"><ele></ele><time>2017-9-12T3:28:47Z</time></trkpt>
<trkpt lat="46.60572831518948" lon="6.737998640164733"><ele></ele><time>2017-9-12T3:28:50Z</time></trkpt>
<trkpt lat="46.60547182895243" lon="6.737614665180445"><ele></ele><time>2017-9-12T3:28:53Z</time></trkpt>
<trkpt lat="46.605221796780825" lon="6.737352395430207"><ele></ele><time>2017-9-12T3:28:56Z</time></trkpt>
<trkpt lat="46.60490898415446" lon="6.7369152791798115"><ele></ele><time>2017-9-12T3:28:59Z</time></trkpt>
<trkpt lat="46.60470362752676" lon="6.736596683040261"><ele></ele><time>2017-9-12T3:29:2Z</time></trkpt>
<trkpt lat="46.60452911630273" lon="6.736254785209894"><ele></ele><time>2017-9-12T3:29:5Z</time></trkpt>
<trkpt lat="46.60439131781459" lon="6.7358382884413"><ele></ele><time>2017-9-12T3:29:8Z</time></trkpt>
<trkpt lat="46.604365753009915" lon="6.735781291499734"><ele></ele><time>2017-9-12T3:29:11Z</time></trkpt>
<trkpt lat="46.60420180298388" lon="6.735536120831966"><ele></ele><time>2017-9-12T3:29:14Z</time></trkpt>
<trkpt lat="46.604043720290065" lon="6.735266055911779"><ele></ele><time>2017-9-12T3:29:17Z</time></trkpt>
<trkpt lat="46.603978257626295" lon="6.734872190281749"><ele></ele><time>2017-9-12T3:29:20Z</time></trkpt>
<trkpt lat="46.60396912135184" lon="6.734565580263734"><ele></ele><time>2017-9-12T3:29:23Z</time></trkpt>
<trkpt lat="46.60397691652179" lon="6.734253941103816"><ele></ele><time>2017-9-12T3:29:26Z</time></trkpt>
<trkpt lat="46.60399837419391" lon="6.733912965282798"><ele></ele><time>2017-9-12T3:29:29Z</time></trkpt>
<trkpt lat="46.60401212051511" lon="6.733507113531232"><ele></ele><time>2017-9-12T3:29:32Z</time></trkpt>
<trkpt lat="46.60399644635618" lon="6.733169574290514"><ele></ele><time>2017-9-12T3:29:35Z</time></trkpt>
<trkpt lat="46.604208340868354" lon="6.732430709525943"><ele></ele><time>2017-9-12T3:29:38Z</time></trkpt>
<trkpt lat="46.60409392789006" lon="6.731686983257532"><ele></ele><time>2017-9-12T3:29:41Z</time></trkpt>
<trkpt lat="46.60378731787205" lon="6.731034955009818"><ele></ele><time>2017-9-12T3:29:44Z</time></trkpt>
<trkpt lat="46.60364532843232" lon="6.7305144388228655"><ele></ele><time>2017-9-12T3:29:47Z</time></trkpt>
<trkpt lat="46.603226903826" lon="6.730008004233241"><ele></ele><time>2017-9-12T3:29:50Z</time></trkpt>
<trkpt lat="46.6028539929539" lon="6.72958480194211"><ele></ele><time>2017-9-12T3:29:53Z</time></trkpt>
<trkpt lat="46.602308079600334" lon="6.7293876595795155"><ele></ele><time>2017-9-12T3:29:56Z</time></trkpt>
<trkpt lat="46.60187507048249" lon="6.7289617750793695"><ele></ele><time>2017-9-12T3:29:59Z</time></trkpt>
<trkpt lat="46.60167306661606" lon="6.728485599160194"><ele></ele><time>2017-9-12T3:30:2Z</time></trkpt>
<trkpt lat="46.601705588400364" lon="6.727727958932519"><ele></ele><time>2017-9-12T3:30:5Z</time></trkpt>
<trkpt lat="46.601912369951606" lon="6.7271066922694445"><ele></ele><time>2017-9-12T3:30:8Z</time></trkpt>
<trkpt lat="46.60193793475628" lon="6.726587517186999"><ele></ele><time>2017-9-12T3:30:11Z</time></trkpt>
<trkpt lat="46.60192561335862" lon="6.7262873612344265"><ele></ele><time>2017-9-12T3:30:14Z</time></trkpt>
<trkpt lat="46.60186844877899" lon="6.726021151989698"><ele></ele><time>2017-9-12T3:30:17Z</time></trkpt>
<trkpt lat="46.601442983374" lon="6.72556777484715"><ele></ele><time>2017-9-12T3:30:20Z</time></trkpt>
<trkpt lat="46.60109890624881" lon="6.7249553091824055"><ele></ele><time>2017-9-12T3:30:23Z</time></trkpt>
<trkpt lat="46.60088751465082" lon="6.7241875268518925"><ele></ele><time>2017-9-12T3:30:26Z</time></trkpt>
<trkpt lat="46.60071333870292" lon="6.723428294062614"><ele></ele><time>2017-9-12T3:30:29Z</time></trkpt>
<trkpt lat="46.60071535035968" lon="6.722874082624912"><ele></ele><time>2017-9-12T3:30:32Z</time></trkpt>
<trkpt lat="46.60072666592896" lon="6.722060199826956"><ele></ele><time>2017-9-12T3:30:35Z</time></trkpt>
<trkpt lat="46.60073823295534" lon="6.721260650083423"><ele></ele><time>2017-9-12T3:30:38Z</time></trkpt>
<trkpt lat="46.600708896294236" lon="6.720842560753226"><ele></ele><time>2017-9-12T3:30:41Z</time></trkpt>
<trkpt lat="46.60065298900008" lon="6.720817917957902"><ele></ele><time>2017-9-12T3:30:44Z</time></trkpt>
<trkpt lat="46.60064687021077" lon="6.720800064504147"><ele></ele><time>2017-9-12T3:30:47Z</time></trkpt>
<trkpt lat="46.60064175724983" lon="6.720793694257736"><ele></ele><time>2017-9-12T3:30:50Z</time></trkpt>
<trkpt lat="46.600639913231134" lon="6.720778606832027"><ele></ele><time>2017-9-12T3:30:53Z</time></trkpt>
<trkpt lat="46.600620383396745" lon="6.720511224120855"><ele></ele><time>2017-9-12T3:30:56Z</time></trkpt>
<trkpt lat="46.60062759183347" lon="6.720481049269438"><ele></ele><time>2017-9-12T3:30:59Z</time></trkpt>
<trkpt lat="46.60076824016869" lon="6.72025297768414"><ele></ele><time>2017-9-12T3:31:2Z</time></trkpt>
<trkpt lat="46.60097946412861" lon="6.720003364607692"><ele></ele><time>2017-9-12T3:31:5Z</time></trkpt>
<trkpt lat="46.60101944580674" lon="6.719282940030098"><ele></ele><time>2017-9-12T3:31:8Z</time></trkpt>
<trkpt lat="46.600922802463174" lon="6.719178501516581"><ele></ele><time>2017-9-12T3:31:11Z</time></trkpt>
<trkpt lat="46.60084820352495" lon="6.719098957255483"><ele></ele><time>2017-9-12T3:31:14Z</time></trkpt>
<trkpt lat="46.600753320381045" lon="6.718977838754654"><ele></ele><time>2017-9-12T3:31:17Z</time></trkpt>
<trkpt lat="46.60066765733063" lon="6.71884716488421"><ele></ele><time>2017-9-12T3:31:20Z</time></trkpt>
<trkpt lat="46.60055726766586" lon="6.7187087796628475"><ele></ele><time>2017-9-12T3:31:23Z</time></trkpt>
<trkpt lat="46.60046003758907" lon="6.718550026416779"><ele></ele><time>2017-9-12T3:31:26Z</time></trkpt>
<trkpt lat="46.60035710781813" lon="6.718362020328641"><ele></ele><time>2017-9-12T3:31:29Z</time></trkpt>
<trkpt lat="46.60023020580411" lon="6.718126991763711"><ele></ele><time>2017-9-12T3:31:32Z</time></trkpt>
<trkpt lat="46.600112691521645" lon="6.717876372858882"><ele></ele><time>2017-9-12T3:31:35Z</time></trkpt>
<trkpt lat="46.600110260769725" lon="6.7175711039453745"><ele></ele><time>2017-9-12T3:31:38Z</time></trkpt>
<trkpt lat="46.599957793951035" lon="6.716800555586815"><ele></ele><time>2017-9-12T3:31:41Z</time></trkpt>
<trkpt lat="46.599574740976095" lon="6.716224802657962"><ele></ele><time>2017-9-12T3:31:44Z</time></trkpt>
<trkpt lat="46.599147180095315" lon="6.715723481029272"><ele></ele><time>2017-9-12T3:31:47Z</time></trkpt>
<trkpt lat="46.59872288815677" lon="6.715240767225623"><ele></ele><time>2017-9-12T3:31:50Z</time></trkpt>
<trkpt lat="46.59821544773877" lon="6.714941281825304"><ele></ele><time>2017-9-12T3:31:53Z</time></trkpt>
<trkpt lat="46.59774832427502" lon="6.714470386505127"><ele></ele><time>2017-9-12T3:31:56Z</time></trkpt>
<trkpt lat="46.59751052968204" lon="6.714357566088438"><ele></ele><time>2017-9-12T3:31:59Z</time></trkpt>
<trkpt lat="46.59736015833914" lon="6.71434591524303"><ele></ele><time>2017-9-12T3:32:2Z</time></trkpt>
<trkpt lat="46.59715530462563" lon="6.714403331279755"><ele></ele><time>2017-9-12T3:32:5Z</time></trkpt>
<trkpt lat="46.596883814781904" lon="6.714575411751866"><ele></ele><time>2017-9-12T3:32:8Z</time></trkpt>
<trkpt lat="46.596488021314144" lon="6.714669959619641"><ele></ele><time>2017-9-12T3:32:11Z</time></trkpt>
<trkpt lat="46.596000865101814" lon="6.714659566059709"><ele></ele><time>2017-9-12T3:32:14Z</time></trkpt>
<trkpt lat="46.59584479406476" lon="6.714658979326487"><ele></ele><time>2017-9-12T3:32:17Z</time></trkpt>
<trkpt lat="46.59529661759734" lon="6.714685717597604"><ele></ele><time>2017-9-12T3:32:20Z</time></trkpt>
<trkpt lat="46.59494164399803" lon="6.714687058702111"><ele></ele><time>2017-9-12T3:32:23Z</time></trkpt>
<trkpt lat="46.59492513164878" lon="6.714649340137839"><ele></ele><time>2017-9-12T3:32:26Z</time></trkpt>
<trkpt lat="46.594920605421066" lon="6.7146457359194756"><ele></ele><time>2017-9-12T3:32:29Z</time></trkpt>
<trkpt lat="46.59491306170821" lon="6.714661326259375"><ele></ele><time>2017-9-12T3:32:32Z</time></trkpt>
<trkpt lat="46.594759756699204" lon="6.714758723974228"><ele></ele><time>2017-9-12T3:32:35Z</time></trkpt>
<trkpt lat="46.594567811116576" lon="6.714703990146518"><ele></ele><time>2017-9-12T3:32:38Z</time></trkpt>
<trkpt lat="46.594438226893544" lon="6.71463081613183"><ele></ele><time>2017-9-12T3:32:41Z</time></trkpt>
<trkpt lat="46.59426170401275" lon="6.714536435902119"><ele></ele><time>2017-9-12T3:32:44Z</time></trkpt>
<trkpt lat="46.59417469985783" lon="6.714368462562561"><ele></ele><time>2017-9-12T3:32:47Z</time></trkpt>
<trkpt lat="46.594156343489885" lon="6.714276261627674"><ele></ele><time>2017-9-12T3:32:50Z</time></trkpt>
<trkpt lat="46.594150476157665" lon="6.7142001539468765"><ele></ele><time>2017-9-12T3:32:53Z</time></trkpt>
<trkpt lat="46.59415265545249" lon="6.714127566665411"><ele></ele><time>2017-9-12T3:32:56Z</time></trkpt>
<trkpt lat="46.594163719564676" lon="6.714036203920841"><ele></ele><time>2017-9-12T3:32:59Z</time></trkpt>
<trkpt lat="46.59418593160808" lon="6.713926484808326"><ele></ele><time>2017-9-12T3:33:2Z</time></trkpt>
<trkpt lat="46.59422205761075" lon="6.713519711047411"><ele></ele><time>2017-9-12T3:33:5Z</time></trkpt>
<trkpt lat="46.59433010034263" lon="6.712854439392686"><ele></ele><time>2017-9-12T3:33:8Z</time></trkpt>
<trkpt lat="46.59427494741976" lon="6.712467949837446"><ele></ele><time>2017-9-12T3:33:11Z</time></trkpt>
<trkpt lat="46.59423915669322" lon="6.711673932150006"><ele></ele><time>2017-9-12T3:33:14Z</time></trkpt>
<trkpt lat="46.59414326772094" lon="6.710902126505971"><ele></ele><time>2017-9-12T3:33:17Z</time></trkpt>
<trkpt lat="46.59412055276334" lon="6.710418406873941"><ele></ele><time>2017-9-12T3:33:20Z</time></trkpt>
<trkpt lat="46.59416866488755" lon="6.710179354995489"><ele></ele><time>2017-9-12T3:33:23Z</time></trkpt>
<trkpt lat="46.594150476157665" lon="6.710109366104007"><ele></ele><time>2017-9-12T3:33:26Z</time></trkpt>
<trkpt lat="46.594094317406416" lon="6.709832344204187"><ele></ele><time>2017-9-12T3:33:29Z</time></trkpt>
<trkpt lat="46.59423219971359" lon="6.709503270685673"><ele></ele><time>2017-9-12T3:33:32Z</time></trkpt>
<trkpt lat="46.594335632398725" lon="6.709351893514395"><ele></ele><time>2017-9-12T3:33:35Z</time></trkpt>
<trkpt lat="46.59445750527084" lon="6.709183668717742"><ele></ele><time>2017-9-12T3:33:38Z</time></trkpt>
<trkpt lat="46.59461114555597" lon="6.708907736465335"><ele></ele><time>2017-9-12T3:33:41Z</time></trkpt>
<trkpt lat="46.5946976467967" lon="6.708783349022269"><ele></ele><time>2017-9-12T3:33:44Z</time></trkpt>
<trkpt lat="46.5947806276381" lon="6.708684945479035"><ele></ele><time>2017-9-12T3:33:47Z</time></trkpt>
<trkpt lat="46.594987912103534" lon="6.708706486970186"><ele></ele><time>2017-9-12T3:33:50Z</time></trkpt>
<trkpt lat="46.59504842944443" lon="6.708722496405244"><ele></ele><time>2017-9-12T3:33:53Z</time></trkpt>
<trkpt lat="46.59510710276663" lon="6.70875015668571"><ele></ele><time>2017-9-12T3:33:56Z</time></trkpt>
<trkpt lat="46.595472637563944" lon="6.708851745352149"><ele></ele><time>2017-9-12T3:33:59Z</time></trkpt>
<trkpt lat="46.59582920372486" lon="6.708906898275018"><ele></ele><time>2017-9-12T3:34:2Z</time></trkpt>
<trkpt lat="46.59614293836057" lon="6.708986526355147"><ele></ele><time>2017-9-12T3:34:5Z</time></trkpt>
<trkpt lat="46.59619867801666" lon="6.708983508870006"><ele></ele><time>2017-9-12T3:34:8Z</time></trkpt>
<trkpt lat="46.59635349176824" lon="6.708745630457997"><ele></ele><time>2017-9-12T3:34:11Z</time></trkpt>
<trkpt lat="46.59643404185772" lon="6.708586206659675"><ele></ele><time>2017-9-12T3:34:14Z</time></trkpt>
<trkpt lat="46.5965402405709" lon="6.708317818120122"><ele></ele><time>2017-9-12T3:34:17Z</time></trkpt>
<trkpt lat="46.59665037877858" lon="6.707983799278736"><ele></ele><time>2017-9-12T3:34:20Z</time></trkpt>
<trkpt lat="46.59702052362263" lon="6.707309978082776"><ele></ele><time>2017-9-12T3:34:23Z</time></trkpt>
<trkpt lat="46.59744448028505" lon="6.706781079992652"><ele></ele><time>2017-9-12T3:34:26Z</time></trkpt>
<trkpt lat="46.59755738452077" lon="6.706660967320204"><ele></ele><time>2017-9-12T3:34:29Z</time></trkpt>
<trkpt lat="46.59766442142427" lon="6.706541106104851"><ele></ele><time>2017-9-12T3:34:32Z</time></trkpt>
<trkpt lat="46.59814227372408" lon="6.706142378970981"><ele></ele><time>2017-9-12T3:34:35Z</time></trkpt>
<trkpt lat="46.59840127453208" lon="6.705896621569991"><ele></ele><time>2017-9-12T3:34:38Z</time></trkpt>
<trkpt lat="46.598991276696324" lon="6.705382224172354"><ele></ele><time>2017-9-12T3:34:41Z</time></trkpt>
<trkpt lat="46.599443228915334" lon="6.704881573095918"><ele></ele><time>2017-9-12T3:34:44Z</time></trkpt>
<trkpt lat="46.59971488639712" lon="6.7046174593269825"><ele></ele><time>2017-9-12T3:34:47Z</time></trkpt>
<trkpt lat="46.59980557858944" lon="6.70451913960278"><ele></ele><time>2017-9-12T3:34:50Z</time></trkpt>
<trkpt lat="46.599912783131" lon="6.7040870524942875"><ele></ele><time>2017-9-12T3:34:53Z</time></trkpt>
<trkpt lat="46.599934911355376" lon="6.703853700309992"><ele></ele><time>2017-9-12T3:34:56Z</time></trkpt>
<trkpt lat="46.60000783391297" lon="6.7029540706425905"><ele></ele><time>2017-9-12T3:34:59Z</time></trkpt>
<trkpt lat="46.60011822357774" lon="6.702627511695027"><ele></ele><time>2017-9-12T3:35:2Z</time></trkpt>
<trkpt lat="46.60051510669291" lon="6.702417125925422"><ele></ele><time>2017-9-12T3:35:5Z</time></trkpt>
<trkpt lat="46.60057554021478" lon="6.702417377382517"><ele></ele><time>2017-9-12T3:35:8Z</time></trkpt>
<trkpt lat="46.60063614137471" lon="6.70241461135447"><ele></ele><time>2017-9-12T3:35:11Z</time></trkpt>
<trkpt lat="46.60116948187351" lon="6.70248644426465"><ele></ele><time>2017-9-12T3:35:14Z</time></trkpt>
<trkpt lat="46.6017260402441" lon="6.702621141448617"><ele></ele><time>2017-9-12T3:35:17Z</time></trkpt>
<trkpt lat="46.60205469466746" lon="6.702643688768148"><ele></ele><time>2017-9-12T3:35:20Z</time></trkpt>
<trkpt lat="46.60248485393822" lon="6.702557187527418"><ele></ele><time>2017-9-12T3:35:23Z</time></trkpt>
<trkpt lat="46.602839743718505" lon="6.702363565564156"><ele></ele><time>2017-9-12T3:35:26Z</time></trkpt>
<trkpt lat="46.603167140856385" lon="6.702212188392878"><ele></ele><time>2017-9-12T3:35:29Z</time></trkpt>
<trkpt lat="46.603347854688764" lon="6.702150497585535"><ele></ele><time>2017-9-12T3:35:32Z</time></trkpt>
<trkpt lat="46.603488586843014" lon="6.7021300457417965"><ele></ele><time>2017-9-12T3:35:35Z</time></trkpt>
<trkpt lat="46.603724118322134" lon="6.7021444626152515"><ele></ele><time>2017-9-12T3:35:38Z</time></trkpt>
<trkpt lat="46.60401463508606" lon="6.702150329947472"><ele></ele><time>2017-9-12T3:35:41Z</time></trkpt>
<trkpt lat="46.604341277852654" lon="6.702025691047311"><ele></ele><time>2017-9-12T3:35:44Z</time></trkpt>
<trkpt lat="46.604486368596554" lon="6.701891999691725"><ele></ele><time>2017-9-12T3:35:47Z</time></trkpt>
<trkpt lat="46.60463958978653" lon="6.701698210090399"><ele></ele><time>2017-9-12T3:35:50Z</time></trkpt>
<trkpt lat="46.60480982623994" lon="6.700947945937514"><ele></ele><time>2017-9-12T3:35:53Z</time></trkpt>
<trkpt lat="46.60460312850773" lon="6.70020891353488"><ele></ele><time>2017-9-12T3:35:56Z</time></trkpt>
<trkpt lat="46.604571947827935" lon="6.700165411457419"><ele></ele><time>2017-9-12T3:35:59Z</time></trkpt>
<trkpt lat="46.60443792119622" lon="6.699985871091485"><ele></ele><time>2017-9-12T3:36:2Z</time></trkpt>
<trkpt lat="46.60441277548671" lon="6.699929712340236"><ele></ele><time>2017-9-12T3:36:5Z</time></trkpt>
<trkpt lat="46.60414061509073" lon="6.699206186458468"><ele></ele><time>2017-9-12T3:36:8Z</time></trkpt>
<trkpt lat="46.60402595065534" lon="6.698896391317248"><ele></ele><time>2017-9-12T3:36:11Z</time></trkpt>
<trkpt lat="46.603903491050005" lon="6.698563043028116"><ele></ele><time>2017-9-12T3:36:14Z</time></trkpt>
<trkpt lat="46.60378891043365" lon="6.698148557916284"><ele></ele><time>2017-9-12T3:36:17Z</time></trkpt>
<trkpt lat="46.603701151907444" lon="6.697938675060868"><ele></ele><time>2017-9-12T3:36:20Z</time></trkpt>
<trkpt lat="46.60362973809242" lon="6.697832643985748"><ele></ele><time>2017-9-12T3:36:23Z</time></trkpt>
<trkpt lat="46.603552624583244" lon="6.697807749733329"><ele></ele><time>2017-9-12T3:36:26Z</time></trkpt>
<trkpt lat="46.60348540171981" lon="6.6978673450648785"><ele></ele><time>2017-9-12T3:36:29Z</time></trkpt>
<trkpt lat="46.603420274332166" lon="6.697928784415126"><ele></ele><time>2017-9-12T3:36:32Z</time></trkpt>
<trkpt lat="46.603165632113814" lon="6.698334300890565"><ele></ele><time>2017-9-12T3:36:35Z</time></trkpt>
<trkpt lat="46.6030627861619" lon="6.698497915640473"><ele></ele><time>2017-9-12T3:36:38Z</time></trkpt>
<trkpt lat="46.602955581620336" lon="6.698661865666509"><ele></ele><time>2017-9-12T3:36:41Z</time></trkpt>
<trkpt lat="46.60290101543069" lon="6.698789102956653"><ele></ele><time>2017-9-12T3:36:44Z</time></trkpt>
<trkpt lat="46.60283161327243" lon="6.6988663002848625"><ele></ele><time>2017-9-12T3:36:47Z</time></trkpt>
<trkpt lat="46.60273404791951" lon="6.698936792090535"><ele></ele><time>2017-9-12T3:36:50Z</time></trkpt>
<trkpt lat="46.60269130021334" lon="6.698953220620751"><ele></ele><time>2017-9-12T3:36:53Z</time></trkpt>
<trkpt lat="46.60228536464274" lon="6.699151871725917"><ele></ele><time>2017-9-12T3:36:56Z</time></trkpt>
<trkpt lat="46.60202879458666" lon="6.699270643293858"><ele></ele><time>2017-9-12T3:36:59Z</time></trkpt>
<trkpt lat="46.601491179317236" lon="6.699327053502202"><ele></ele><time>2017-9-12T3:37:2Z</time></trkpt>
<trkpt lat="46.601218013092875" lon="6.699271984398365"><ele></ele><time>2017-9-12T3:37:5Z</time></trkpt>
<trkpt lat="46.6007661446929" lon="6.699243988841772"><ele></ele><time>2017-9-12T3:37:8Z</time></trkpt>
<trkpt lat="46.60046020522714" lon="6.699280114844441"><ele></ele><time>2017-9-12T3:37:11Z</time></trkpt>
<trkpt lat="46.60024009644985" lon="6.699203001335263"><ele></ele><time>2017-9-12T3:37:14Z</time></trkpt>
<trkpt lat="46.60018770955503" lon="6.699170563369989"><ele></ele><time>2017-9-12T3:37:17Z</time></trkpt>
<trkpt lat="46.60000925883651" lon="6.699081128463149"><ele></ele><time>2017-9-12T3:37:20Z</time></trkpt>
<trkpt lat="46.599887888878584" lon="6.699009630829096"><ele></ele><time>2017-9-12T3:37:23Z</time></trkpt>
<trkpt lat="46.59971044398844" lon="6.6988942958414555"><ele></ele><time>2017-9-12T3:37:26Z</time></trkpt>
<trkpt lat="46.59953526221216" lon="6.698751887306571"><ele></ele><time>2017-9-12T3:37:29Z</time></trkpt>
<trkpt lat="46.59941179677844" lon="6.698643006384373"><ele></ele><time>2017-9-12T3:37:32Z</time></trkpt>
<trkpt lat="46.59916059114039" lon="6.69843764975667"><ele></ele><time>2017-9-12T3:37:35Z</time></trkpt>
<trkpt lat="46.599096385762095" lon="6.698403200134635"><ele></ele><time>2017-9-12T3:37:38Z</time></trkpt>
<trkpt lat="46.59888273105025" lon="6.698301192373037"><ele></ele><time>2017-9-12T3:37:41Z</time></trkpt>
<trkpt lat="46.59867284819484" lon="6.698162388056517"><ele></ele><time>2017-9-12T3:37:44Z</time></trkpt>
<trkpt lat="46.59856405109167" lon="6.698053339496255"><ele></ele><time>2017-9-12T3:37:47Z</time></trkpt>
<trkpt lat="46.59846338443458" lon="6.697989050298929"><ele></ele><time>2017-9-12T3:37:50Z</time></trkpt>
<trkpt lat="46.59838207997382" lon="6.69824511744082"><ele></ele><time>2017-9-12T3:37:53Z</time></trkpt>
<trkpt lat="46.598320472985506" lon="6.698433626443148"><ele></ele><time>2017-9-12T3:37:56Z</time></trkpt>
<trkpt lat="46.598261799663305" lon="6.698573688045144"><ele></ele><time>2017-9-12T3:37:59Z</time></trkpt>
<trkpt lat="46.59795963205397" lon="6.6990480199456215"><ele></ele><time>2017-9-12T3:38:2Z</time></trkpt>
<trkpt lat="46.59768730401993" lon="6.699126977473497"><ele></ele><time>2017-9-12T3:38:5Z</time></trkpt>
<trkpt lat="46.59746962599456" lon="6.6989231295883656"><ele></ele><time>2017-9-12T3:38:8Z</time></trkpt>
<trkpt lat="46.5972741600126" lon="6.698694806545973"><ele></ele><time>2017-9-12T3:38:11Z</time></trkpt>
<trkpt lat="46.59681768156588" lon="6.698137912899256"><ele></ele><time>2017-9-12T3:38:14Z</time></trkpt>
<trkpt lat="46.596767054870725" lon="6.698060045018792"><ele></ele><time>2017-9-12T3:38:17Z</time></trkpt>
<trkpt lat="46.596419122070074" lon="6.697629885748029"><ele></ele><time>2017-9-12T3:38:20Z</time></trkpt>
<trkpt lat="46.59604109823704" lon="6.697393013164401"><ele></ele><time>2017-9-12T3:38:23Z</time></trkpt>
<trkpt lat="46.5956786647439" lon="6.697363508865237"><ele></ele><time>2017-9-12T3:38:26Z</time></trkpt>
<trkpt lat="46.59540709108114" lon="6.697340039536357"><ele></ele><time>2017-9-12T3:38:29Z</time></trkpt>
<trkpt lat="46.595160914584994" lon="6.697437185794115"><ele></ele><time>2017-9-12T3:38:32Z</time></trkpt>
<trkpt lat="46.59497114829719" lon="6.697657210752368"><ele></ele><time>2017-9-12T3:38:35Z</time></trkpt>
<trkpt lat="46.59475673921406" lon="6.69812785461545"><ele></ele><time>2017-9-12T3:38:38Z</time></trkpt>
<trkpt lat="46.59464668482542" lon="6.698383251205087"><ele></ele><time>2017-9-12T3:38:41Z</time></trkpt>
<trkpt lat="46.59416296519339" lon="6.698721377179027"><ele></ele><time>2017-9-12T3:38:44Z</time></trkpt>
<trkpt lat="46.59396590664983" lon="6.698696734383702"><ele></ele><time>2017-9-12T3:38:47Z</time></trkpt>
<trkpt lat="46.59371629357338" lon="6.698641749098897"><ele></ele><time>2017-9-12T3:38:50Z</time></trkpt>
<trkpt lat="46.59361369907856" lon="6.69854418374598"><ele></ele><time>2017-9-12T3:38:53Z</time></trkpt>
<trkpt lat="46.593606155365705" lon="6.698476877063513"><ele></ele><time>2017-9-12T3:38:56Z</time></trkpt>
<trkpt lat="46.5936856996268" lon="6.698291301727295"><ele></ele><time>2017-9-12T3:38:59Z</time></trkpt>
<trkpt lat="46.593848057091236" lon="6.697924677282572"><ele></ele><time>2017-9-12T3:39:2Z</time></trkpt>
<trkpt lat="46.59397822804749" lon="6.6975274588912725"><ele></ele><time>2017-9-12T3:39:5Z</time></trkpt>
<trkpt lat="46.59407042898238" lon="6.6971855610609055"><ele></ele><time>2017-9-12T3:39:8Z</time></trkpt>
<trkpt lat="46.59410093910992" lon="6.696841903030872"><ele></ele><time>2017-9-12T3:39:11Z</time></trkpt>
<trkpt lat="46.59409498795867" lon="6.696340916678309"><ele></ele><time>2017-9-12T3:39:14Z</time></trkpt>
<trkpt lat="46.59414142370224" lon="6.695840852335095"><ele></ele><time>2017-9-12T3:39:17Z</time></trkpt>
<trkpt lat="46.59417327493429" lon="6.695715459063649"><ele></ele><time>2017-9-12T3:39:20Z</time></trkpt>
<trkpt lat="46.594272181391716" lon="6.6952544543892145"><ele></ele><time>2017-9-12T3:39:23Z</time></trkpt>
<trkpt lat="46.59439489245415" lon="6.694714576005936"><ele></ele><time>2017-9-12T3:39:26Z</time></trkpt>
<trkpt lat="46.59460821188986" lon="6.6941706743091345"><ele></ele><time>2017-9-12T3:39:29Z</time></trkpt>
<trkpt lat="46.594956647604704" lon="6.69347271323204"><ele></ele><time>2017-9-12T3:39:32Z</time></trkpt>
<trkpt lat="46.595011381432414" lon="6.693324688822031"><ele></ele><time>2017-9-12T3:39:35Z</time></trkpt>
<trkpt lat="46.59504482522607" lon="6.6931007243692875"><ele></ele><time>2017-9-12T3:39:38Z</time></trkpt>
<trkpt lat="46.59500467590988" lon="6.692861504852772"><ele></ele><time>2017-9-12T3:39:41Z</time></trkpt>
<trkpt lat="46.59483343362808" lon="6.69277785345912"><ele></ele><time>2017-9-12T3:39:44Z</time></trkpt>
<trkpt lat="46.5947444178164" lon="6.692784056067467"><ele></ele><time>2017-9-12T3:39:47Z</time></trkpt>
<trkpt lat="46.59462028183043" lon="6.692784391343594"><ele></ele><time>2017-9-12T3:39:50Z</time></trkpt>
<trkpt lat="46.594500755891204" lon="6.692781373858452"><ele></ele><time>2017-9-12T3:39:53Z</time></trkpt>
<trkpt lat="46.59439313225448" lon="6.6927590779960155"><ele></ele><time>2017-9-12T3:39:56Z</time></trkpt>
<trkpt lat="46.59424929879606" lon="6.692762682214379"><ele></ele><time>2017-9-12T3:39:59Z</time></trkpt>
<trkpt lat="46.59414938651025" lon="6.692746924236417"><ele></ele><time>2017-9-12T3:40:2Z</time></trkpt>
<trkpt lat="46.59399180673063" lon="6.69268699362874"><ele></ele><time>2017-9-12T3:40:5Z</time></trkpt>
<trkpt lat="46.5937393438071" lon="6.692504016682506"><ele></ele><time>2017-9-12T3:40:8Z</time></trkpt>
<trkpt lat="46.593457041308284" lon="6.692291786894202"><ele></ele><time>2017-9-12T3:40:11Z</time></trkpt>
<trkpt lat="46.5932522714138" lon="6.692113587632775"><ele></ele><time>2017-9-12T3:40:14Z</time></trkpt>
<trkpt lat="46.59319736994803" lon="6.692072935402393"><ele></ele><time>2017-9-12T3:40:17Z</time></trkpt>
<trkpt lat="46.59307608380914" lon="6.69195500202477"><ele></ele><time>2017-9-12T3:40:20Z</time></trkpt>
<trkpt lat="46.592617090791464" lon="6.691641770303249"><ele></ele><time>2017-9-12T3:40:23Z</time></trkpt>
<trkpt lat="46.59239362925291" lon="6.6916293650865555"><ele></ele><time>2017-9-12T3:40:26Z</time></trkpt>
<trkpt lat="46.59226982854307" lon="6.691608913242817"><ele></ele><time>2017-9-12T3:40:29Z</time></trkpt>
<trkpt lat="46.59211358986795" lon="6.691638082265854"><ele></ele><time>2017-9-12T3:40:32Z</time></trkpt>
<trkpt lat="46.59202113747597" lon="6.691654929891229"><ele></ele><time>2017-9-12T3:40:35Z</time></trkpt>
<trkpt lat="46.59192273393273" lon="6.691613355651498"><ele></ele><time>2017-9-12T3:40:38Z</time></trkpt>
<trkpt lat="46.59185123629868" lon="6.691671693697572"><ele></ele><time>2017-9-12T3:40:41Z</time></trkpt>
<trkpt lat="46.59157429821789" lon="6.692016189917922"><ele></ele><time>2017-9-12T3:40:44Z</time></trkpt>
<trkpt lat="46.591425435617566" lon="6.692205537110567"><ele></ele><time>2017-9-12T3:40:47Z</time></trkpt>
<trkpt lat="46.591356955468655" lon="6.692189108580351"><ele></ele><time>2017-9-12T3:40:50Z</time></trkpt>
<trkpt lat="46.59116660244763" lon="6.692158682271838"><ele></ele><time>2017-9-12T3:40:53Z</time></trkpt>
<trkpt lat="46.59078782424331" lon="6.6920222248882055"><ele></ele><time>2017-9-12T3:40:56Z</time></trkpt>
<trkpt lat="46.59043662250042" lon="6.691940752789378"><ele></ele><time>2017-9-12T3:40:59Z</time></trkpt>
<trkpt lat="46.5899870172143" lon="6.691790046170354"><ele></ele><time>2017-9-12T3:41:2Z</time></trkpt>
<trkpt lat="46.58993186429143" lon="6.691821310669184"><ele></ele><time>2017-9-12T3:41:5Z</time></trkpt>
<trkpt lat="46.58993974328041" lon="6.691765654832125"><ele></ele><time>2017-9-12T3:41:8Z</time></trkpt>
<trkpt lat="46.589910658076406" lon="6.691692480817437"><ele></ele><time>2017-9-12T3:41:11Z</time></trkpt>
<trkpt lat="46.589478654786944" lon="6.691199624910951"><ele></ele><time>2017-9-12T3:41:14Z</time></trkpt>
<trkpt lat="46.58939257264137" lon="6.691091665998101"><ele></ele><time>2017-9-12T3:41:17Z</time></trkpt>
<trkpt lat="46.58921403810382" lon="6.690830402076244"><ele></ele><time>2017-9-12T3:41:20Z</time></trkpt>
<trkpt lat="46.58908420242369" lon="6.690308125689626"><ele></ele><time>2017-9-12T3:41:23Z</time></trkpt>
<trkpt lat="46.5890094358474" lon="6.689759697765112"><ele></ele><time>2017-9-12T3:41:26Z</time></trkpt>
<trkpt lat="46.58880173228681" lon="6.689531458541751"><ele></ele><time>2017-9-12T3:41:29Z</time></trkpt>
<trkpt lat="46.588651947677135" lon="6.6895009484142065"><ele></ele><time>2017-9-12T3:41:32Z</time></trkpt>
<trkpt lat="46.588498977944255" lon="6.689455937594175"><ele></ele><time>2017-9-12T3:41:35Z</time></trkpt>
<trkpt lat="46.58828029409051" lon="6.689411764964461"><ele></ele><time>2017-9-12T3:41:38Z</time></trkpt>
<trkpt lat="46.5882115624845" lon="6.689529027789831"><ele></ele><time>2017-9-12T3:41:41Z</time></trkpt>
<trkpt lat="46.58803462050855" lon="6.689799427986145"><ele></ele><time>2017-9-12T3:41:44Z</time></trkpt>
<trkpt lat="46.58762449398637" lon="6.690335618332028"><ele></ele><time>2017-9-12T3:41:47Z</time></trkpt>
<trkpt lat="46.587310591712594" lon="6.6906495206058025"><ele></ele><time>2017-9-12T3:41:50Z</time></trkpt>
<trkpt lat="46.587223168462515" lon="6.690831491723657"><ele></ele><time>2017-9-12T3:41:53Z</time></trkpt>
<trkpt lat="46.5873153693974" lon="6.691025700420141"><ele></ele><time>2017-9-12T3:41:56Z</time></trkpt>
<trkpt lat="46.58735191449523" lon="6.69105252251029"><ele></ele><time>2017-9-12T3:41:59Z</time></trkpt>
<trkpt lat="46.58773119561374" lon="6.691333735361695"><ele></ele><time>2017-9-12T3:42:2Z</time></trkpt>
<trkpt lat="46.58779313787818" lon="6.691918624565005"><ele></ele><time>2017-9-12T3:42:5Z</time></trkpt>
<trkpt lat="46.587763549759984" lon="6.692512817680836"><ele></ele><time>2017-9-12T3:42:8Z</time></trkpt>
<trkpt lat="46.587727507576346" lon="6.693301303312182"><ele></ele><time>2017-9-12T3:42:11Z</time></trkpt>
<trkpt lat="46.58768258057535" lon="6.693594334647059"><ele></ele><time>2017-9-12T3:42:14Z</time></trkpt>
<trkpt lat="46.58724362030625" lon="6.693977806717157"><ele></ele><time>2017-9-12T3:42:17Z</time></trkpt>
<trkpt lat="46.58699274994433" lon="6.694048382341862"><ele></ele><time>2017-9-12T3:42:20Z</time></trkpt>
<trkpt lat="46.586848916485906" lon="6.694257175549865"><ele></ele><time>2017-9-12T3:42:23Z</time></trkpt>
<trkpt lat="46.586605086922646" lon="6.694734860211611"><ele></ele><time>2017-9-12T3:42:26Z</time></trkpt>
<trkpt lat="46.5863071102649" lon="6.695149429142475"><ele></ele><time>2017-9-12T3:42:29Z</time></trkpt>
<trkpt lat="46.586091443896294" lon="6.6957910638302565"><ele></ele><time>2017-9-12T3:42:32Z</time></trkpt>
<trkpt lat="46.586074344813824" lon="6.6959418542683125"><ele></ele><time>2017-9-12T3:42:35Z</time></trkpt>
<trkpt lat="46.58608876168728" lon="6.696121394634247"><ele></ele><time>2017-9-12T3:42:38Z</time></trkpt>
<trkpt lat="46.58610141836107" lon="6.696171602234244"><ele></ele><time>2017-9-12T3:42:41Z</time></trkpt>
<trkpt lat="46.586354384198785" lon="6.6966180223971605"><ele></ele><time>2017-9-12T3:42:44Z</time></trkpt>
<trkpt lat="46.58638397231698" lon="6.697022197768092"><ele></ele><time>2017-9-12T3:42:47Z</time></trkpt>
<trkpt lat="46.58640635199845" lon="6.697526453062892"><ele></ele><time>2017-9-12T3:42:50Z</time></trkpt>
<trkpt lat="46.586561584845185" lon="6.698029953986406"><ele></ele><time>2017-9-12T3:42:53Z</time></trkpt>
<trkpt lat="46.58660290762782" lon="6.6982481349259615"><ele></ele><time>2017-9-12T3:42:56Z</time></trkpt>
<trkpt lat="46.586617240682244" lon="6.698756916448474"><ele></ele><time>2017-9-12T3:42:59Z</time></trkpt>
<trkpt lat="46.5865193400532" lon="6.699163606390357"><ele></ele><time>2017-9-12T3:43:2Z</time></trkpt>
<trkpt lat="46.586454547941685" lon="6.699441634118557"><ele></ele><time>2017-9-12T3:43:5Z</time></trkpt>
<trkpt lat="46.58645153045654" lon="6.699678506702185"><ele></ele><time>2017-9-12T3:43:8Z</time></trkpt>
<trkpt lat="46.5865523647517" lon="6.699670627713203"><ele></ele><time>2017-9-12T3:43:11Z</time></trkpt>
<trkpt lat="46.586608439683914" lon="6.699650846421719"><ele></ele><time>2017-9-12T3:43:14Z</time></trkpt>
<trkpt lat="46.58673634752631" lon="6.699620503932238"><ele></ele><time>2017-9-12T3:43:17Z</time></trkpt>
<trkpt lat="46.58695897087455" lon="6.699586054310203"><ele></ele><time>2017-9-12T3:43:20Z</time></trkpt>
<trkpt lat="46.58714001998305" lon="6.6995572205632925"><ele></ele><time>2017-9-12T3:43:23Z</time></trkpt>
<trkpt lat="46.58728988841176" lon="6.699554622173309"><ele></ele><time>2017-9-12T3:43:26Z</time></trkpt>
<trkpt lat="46.58754335716367" lon="6.699624191969633"><ele></ele><time>2017-9-12T3:43:29Z</time></trkpt>
<trkpt lat="46.5879147592932" lon="6.699695270508528"><ele></ele><time>2017-9-12T3:43:32Z</time></trkpt>
<trkpt lat="46.588478945195675" lon="6.699693175032735"><ele></ele><time>2017-9-12T3:43:35Z</time></trkpt>
<trkpt lat="46.58902443945408" lon="6.699470886960626"><ele></ele><time>2017-9-12T3:43:38Z</time></trkpt>
<trkpt lat="46.589111695066094" lon="6.699438951909542"><ele></ele><time>2017-9-12T3:43:41Z</time></trkpt>
<trkpt lat="46.589372204616666" lon="6.699545569717884"><ele></ele><time>2017-9-12T3:43:44Z</time></trkpt>
<trkpt lat="46.589870089665055" lon="6.699972962960601"><ele></ele><time>2017-9-12T3:43:47Z</time></trkpt>
<trkpt lat="46.59035732969642" lon="6.700454922392964"><ele></ele><time>2017-9-12T3:43:50Z</time></trkpt>
<trkpt lat="46.590431509539485" lon="6.700536562129855"><ele></ele><time>2017-9-12T3:43:53Z</time></trkpt>
<trkpt lat="46.590404603630304" lon="6.700713923200965"><ele></ele><time>2017-9-12T3:43:56Z</time></trkpt>
<trkpt lat="46.59018415957689" lon="6.700701853260398"><ele></ele><time>2017-9-12T3:43:59Z</time></trkpt>
<trkpt lat="46.58991174772382" lon="6.7006616201251745"><ele></ele><time>2017-9-12T3:44:2Z</time></trkpt>
<trkpt lat="46.58932073973119" lon="6.700699254870415"><ele></ele><time>2017-9-12T3:44:5Z</time></trkpt>
<trkpt lat="46.58913382329047" lon="6.700716437771916"><ele></ele><time>2017-9-12T3:44:8Z</time></trkpt>
<trkpt lat="46.588769713416696" lon="6.700751893222332"><ele></ele><time>2017-9-12T3:44:11Z</time></trkpt>
<trkpt lat="46.588549269363284" lon="6.700740661472082"><ele></ele><time>2017-9-12T3:44:14Z</time></trkpt>
<trkpt lat="46.58843376673758" lon="6.700725154951215"><ele></ele><time>2017-9-12T3:44:17Z</time></trkpt>
<trkpt lat="46.58808005042374" lon="6.700707552954555"><ele></ele><time>2017-9-12T3:44:20Z</time></trkpt>
<trkpt lat="46.587746450677514" lon="6.700992537662387"><ele></ele><time>2017-9-12T3:44:23Z</time></trkpt>
<trkpt lat="46.587320901453495" lon="6.701413728296757"><ele></ele><time>2017-9-12T3:44:26Z</time></trkpt>
<trkpt lat="46.58724345266819" lon="6.701487572863698"><ele></ele><time>2017-9-12T3:44:29Z</time></trkpt>
<trkpt lat="46.58716290257871" lon="6.7015716433525085"><ele></ele><time>2017-9-12T3:44:32Z</time></trkpt>
<trkpt lat="46.587101547047496" lon="6.701681781560183"><ele></ele><time>2017-9-12T3:44:35Z</time></trkpt>
<trkpt lat="46.58702275715768" lon="6.701864507049322"><ele></ele><time>2017-9-12T3:44:38Z</time></trkpt>
<trkpt lat="46.58695033751428" lon="6.702007334679365"><ele></ele><time>2017-9-12T3:44:41Z</time></trkpt>
<trkpt lat="46.586937764659524" lon="6.702104145660996"><ele></ele><time>2017-9-12T3:44:44Z</time></trkpt>
<trkpt lat="46.5869995392859" lon="6.70222501270473"><ele></ele><time>2017-9-12T3:44:47Z</time></trkpt>
<trkpt lat="46.58708956092596" lon="6.702374797314405"><ele></ele><time>2017-9-12T3:44:50Z</time></trkpt>
<trkpt lat="46.587180169299245" lon="6.70258853584528"><ele></ele><time>2017-9-12T3:44:53Z</time></trkpt>
<trkpt lat="46.58718620426953" lon="6.702938564121723"><ele></ele><time>2017-9-12T3:44:56Z</time></trkpt>
<trkpt lat="46.587172374129295" lon="6.703359084203839"><ele></ele><time>2017-9-12T3:44:59Z</time></trkpt>
<trkpt lat="46.58707573078573" lon="6.704136840999126"><ele></ele><time>2017-9-12T3:45:2Z</time></trkpt>
<trkpt lat="46.586836175993085" lon="6.704844776540995"><ele></ele><time>2017-9-12T3:45:5Z</time></trkpt>
<trkpt lat="46.586591340601444" lon="6.705597974359989"><ele></ele><time>2017-9-12T3:45:8Z</time></trkpt>
<trkpt lat="46.586384642869234" lon="6.706160148605704"><ele></ele><time>2017-9-12T3:45:11Z</time></trkpt>
<trkpt lat="46.5862101316452" lon="6.706663900986314"><ele></ele><time>2017-9-12T3:45:14Z</time></trkpt>
<trkpt lat="46.58603838644922" lon="6.7065641563385725"><ele></ele><time>2017-9-12T3:45:17Z</time></trkpt>
<trkpt lat="46.58599781803787" lon="6.7065320536494255"><ele></ele><time>2017-9-12T3:45:20Z</time></trkpt>
<trkpt lat="46.58557084389031" lon="6.706214463338256"><ele></ele><time>2017-9-12T3:45:23Z</time></trkpt>
<trkpt lat="46.585532035678625" lon="6.7061712965369225"><ele></ele><time>2017-9-12T3:45:26Z</time></trkpt>
<trkpt lat="46.585115203633904" lon="6.705820094794035"><ele></ele><time>2017-9-12T3:45:29Z</time></trkpt>
<trkpt lat="46.58490096218884" lon="6.705822357907891"><ele></ele><time>2017-9-12T3:45:32Z</time></trkpt>
<trkpt lat="46.58481404185295" lon="6.70582914724946"><ele></ele><time>2017-9-12T3:45:35Z</time></trkpt>
<trkpt lat="46.58465822227299" lon="6.705820430070162"><ele></ele><time>2017-9-12T3:45:38Z</time></trkpt>
<trkpt lat="46.58432177267969" lon="6.705490602180362"><ele></ele><time>2017-9-12T3:45:41Z</time></trkpt>
<trkpt lat="46.584288496524096" lon="6.705241072922945"><ele></ele><time>2017-9-12T3:45:44Z</time></trkpt>
<trkpt lat="46.58429151400924" lon="6.705161612480879"><ele></ele><time>2017-9-12T3:45:47Z</time></trkpt>
<trkpt lat="46.58426678739488" lon="6.7048159427940845"><ele></ele><time>2017-9-12T3:45:50Z</time></trkpt>
<trkpt lat="46.583736296743155" lon="6.704458203166723"><ele></ele><time>2017-9-12T3:45:53Z</time></trkpt>
<trkpt lat="46.58368583768606" lon="6.704465411603451"><ele></ele><time>2017-9-12T3:45:56Z</time></trkpt>
<trkpt lat="46.583353746682405" lon="6.704423585906625"><ele></ele><time>2017-9-12T3:45:59Z</time></trkpt>
<trkpt lat="46.58305392600596" lon="6.704183276742697"><ele></ele><time>2017-9-12T3:46:2Z</time></trkpt>
<trkpt lat="46.582970609888434" lon="6.704053692519665"><ele></ele><time>2017-9-12T3:46:5Z</time></trkpt>
<trkpt lat="46.5828412771225" lon="6.703884964808822"><ele></ele><time>2017-9-12T3:46:8Z</time></trkpt>
<trkpt lat="46.58270959742367" lon="6.703730737790465"><ele></ele><time>2017-9-12T3:46:11Z</time></trkpt>
<trkpt lat="46.58263944089413" lon="6.703637363389134"><ele></ele><time>2017-9-12T3:46:14Z</time></trkpt>
<trkpt lat="46.58261228352785" lon="6.703589670360088"><ele></ele><time>2017-9-12T3:46:17Z</time></trkpt>
<trkpt lat="46.582591915503144" lon="6.703535607084632"><ele></ele><time>2017-9-12T3:46:20Z</time></trkpt>
<trkpt lat="46.582519160583615" lon="6.70332932844758"><ele></ele><time>2017-9-12T3:46:23Z</time></trkpt>
<trkpt lat="46.582470797002316" lon="6.70319345779717"><ele></ele><time>2017-9-12T3:46:26Z</time></trkpt>
<trkpt lat="46.5824403706938" lon="6.703029423952103"><ele></ele><time>2017-9-12T3:46:29Z</time></trkpt>
<trkpt lat="46.582589065656066" lon="6.7023456282913685"><ele></ele><time>2017-9-12T3:46:32Z</time></trkpt>
<trkpt lat="46.58296004869044" lon="6.701924940571189"><ele></ele><time>2017-9-12T3:46:35Z</time></trkpt>
<trkpt lat="46.583419712260365" lon="6.7014791909605265"><ele></ele><time>2017-9-12T3:46:38Z</time></trkpt>
<trkpt lat="46.58356798812747" lon="6.701352959498763"><ele></ele><time>2017-9-12T3:46:41Z</time></trkpt>
<trkpt lat="46.583765633404255" lon="6.701268721371889"><ele></ele><time>2017-9-12T3:46:44Z</time></trkpt>
<trkpt lat="46.58389303833246" lon="6.701253969222307"><ele></ele><time>2017-9-12T3:46:47Z</time></trkpt>
<trkpt lat="46.58417081460357" lon="6.70124483294785"><ele></ele><time>2017-9-12T3:46:50Z</time></trkpt>
<trkpt lat="46.5845057554543" lon="6.701255980879068"><ele></ele><time>2017-9-12T3:46:53Z</time></trkpt>
<trkpt lat="46.58486424945295" lon="6.701283222064376"><ele></ele><time>2017-9-12T3:46:56Z</time></trkpt>
<trkpt lat="46.585159208625555" lon="6.701294286176562"><ele></ele><time>2017-9-12T3:46:59Z</time></trkpt>
<trkpt lat="46.585403960198164" lon="6.700792880728841"><ele></ele><time>2017-9-12T3:47:2Z</time></trkpt>
<trkpt lat="46.585255432873964" lon="6.700744181871414"><ele></ele><time>2017-9-12T3:47:5Z</time></trkpt>
<trkpt lat="46.58469225279987" lon="6.700565395876765"><ele></ele><time>2017-9-12T3:47:8Z</time></trkpt>
<trkpt lat="46.584275756031275" lon="6.700363559648395"><ele></ele><time>2017-9-12T3:47:11Z</time></trkpt>
<trkpt lat="46.58386764116585" lon="6.6999626532197"><ele></ele><time>2017-9-12T3:47:14Z</time></trkpt>
<trkpt lat="46.58354602754116" lon="6.699326382949948"><ele></ele><time>2017-9-12T3:47:17Z</time></trkpt>
<trkpt lat="46.58319767564535" lon="6.699351780116558"><ele></ele><time>2017-9-12T3:47:20Z</time></trkpt>
<trkpt lat="46.58303389325738" lon="6.699499553069472"><ele></ele><time>2017-9-12T3:47:23Z</time></trkpt>
<trkpt lat="46.582791823893785" lon="6.699659898877144"><ele></ele><time>2017-9-12T3:47:26Z</time></trkpt>
<trkpt lat="46.582740526646376" lon="6.699689822271466"><ele></ele><time>2017-9-12T3:47:29Z</time></trkpt>
<trkpt lat="46.58252025023103" lon="6.699730223044753"><ele></ele><time>2017-9-12T3:47:32Z</time></trkpt>
<trkpt lat="46.58221263438463" lon="6.699761571362615"><ele></ele><time>2017-9-12T3:47:35Z</time></trkpt>
<trkpt lat="46.58186118118465" lon="6.699802726507187"><ele></ele><time>2017-9-12T3:47:38Z</time></trkpt>
<trkpt lat="46.58154409378767" lon="6.6998140420764685"><ele></ele><time>2017-9-12T3:47:41Z</time></trkpt>
<trkpt lat="46.58116003498435" lon="6.6998955979943275"><ele></ele><time>2017-9-12T3:47:44Z</time></trkpt>
<trkpt lat="46.58067095093429" lon="6.700266497209668"><ele></ele><time>2017-9-12T3:47:47Z</time></trkpt>
<trkpt lat="46.58048177137971" lon="6.700341096147895"><ele></ele><time>2017-9-12T3:47:50Z</time></trkpt>
<trkpt lat="46.580466851592064" lon="6.700161304324865"><ele></ele><time>2017-9-12T3:47:53Z</time></trkpt>
<trkpt lat="46.58055368810892" lon="6.699611786752939"><ele></ele><time>2017-9-12T3:47:56Z</time></trkpt>
<trkpt lat="46.58061848022044" lon="6.699183722957969"><ele></ele><time>2017-9-12T3:47:59Z</time></trkpt>
<trkpt lat="46.5806479845196" lon="6.699057659134269"><ele></ele><time>2017-9-12T3:48:2Z</time></trkpt>
<trkpt lat="46.58092685043812" lon="6.698382496833801"><ele></ele><time>2017-9-12T3:48:5Z</time></trkpt>
<trkpt lat="46.58111904747784" lon="6.698025595396757"><ele></ele><time>2017-9-12T3:48:8Z</time></trkpt>
<trkpt lat="46.58118627034128" lon="6.697797272354364"><ele></ele><time>2017-9-12T3:48:11Z</time></trkpt>
<trkpt lat="46.581302024424076" lon="6.697157900780439"><ele></ele><time>2017-9-12T3:48:14Z</time></trkpt>
<trkpt lat="46.58145315013826" lon="6.696387939155102"><ele></ele><time>2017-9-12T3:48:17Z</time></trkpt>
<trkpt lat="46.581540405750275" lon="6.695916624739766"><ele></ele><time>2017-9-12T3:48:20Z</time></trkpt>
<trkpt lat="46.58163880929351" lon="6.695560561493039"><ele></ele><time>2017-9-12T3:48:23Z</time></trkpt>
<trkpt lat="46.581713827326894" lon="6.6952188313007355"><ele></ele><time>2017-9-12T3:48:26Z</time></trkpt>
<trkpt lat="46.581696309149265" lon="6.695108525454998"><ele></ele><time>2017-9-12T3:48:29Z</time></trkpt>
<trkpt lat="46.58169563859701" lon="6.694818679243326"><ele></ele><time>2017-9-12T3:48:32Z</time></trkpt>
<trkpt lat="46.58169312402606" lon="6.6946006659418344"><ele></ele><time>2017-9-12T3:48:35Z</time></trkpt>
<trkpt lat="46.581335132941604" lon="6.694003958255053"><ele></ele><time>2017-9-12T3:48:38Z</time></trkpt>
<trkpt lat="46.58087907359004" lon="6.693543624132872"><ele></ele><time>2017-9-12T3:48:41Z</time></trkpt>
<trkpt lat="46.58067581243813" lon="6.693392246961594"><ele></ele><time>2017-9-12T3:48:44Z</time></trkpt>
<trkpt lat="46.58046525903046" lon="6.6932927537709475"><ele></ele><time>2017-9-12T3:48:47Z</time></trkpt>
<trkpt lat="46.5801508538425" lon="6.693208431825042"><ele></ele><time>2017-9-12T3:48:50Z</time></trkpt>
<trkpt lat="46.57988330349326" lon="6.693159900605679"><ele></ele><time>2017-9-12T3:48:53Z</time></trkpt>
<trkpt lat="46.57978146336973" lon="6.693129055202007"><ele></ele><time>2017-9-12T3:48:56Z</time></trkpt>
<trkpt lat="46.57922540791333" lon="6.6929711401462555"><ele></ele><time>2017-9-12T3:48:59Z</time></trkpt>
<trkpt lat="46.57918483950198" lon="6.692988909780979"><ele></ele><time>2017-9-12T3:49:2Z</time></trkpt>
<trkpt lat="46.578770438209176" lon="6.693188147619367"><ele></ele><time>2017-9-12T3:49:5Z</time></trkpt>
<trkpt lat="46.57833290286362" lon="6.693541863933206"><ele></ele><time>2017-9-12T3:49:8Z</time></trkpt>
<trkpt lat="46.57825713045895" lon="6.693552760407329"><ele></ele><time>2017-9-12T3:49:11Z</time></trkpt>
<trkpt lat="46.57768045552075" lon="6.693607494235039"><ele></ele><time>2017-9-12T3:49:14Z</time></trkpt>
<trkpt lat="46.57745825126767" lon="6.6935657523572445"><ele></ele><time>2017-9-12T3:49:17Z</time></trkpt>
<trkpt lat="46.577543998137116" lon="6.693169791251421"><ele></ele><time>2017-9-12T3:49:20Z</time></trkpt>
<trkpt lat="46.577549781650305" lon="6.692912969738245"><ele></ele><time>2017-9-12T3:49:23Z</time></trkpt>
<trkpt lat="46.57759361900389" lon="6.692395806312561"><ele></ele><time>2017-9-12T3:49:26Z</time></trkpt>
<trkpt lat="46.57728818245232" lon="6.692147785797715"><ele></ele><time>2017-9-12T3:49:29Z</time></trkpt>
<trkpt lat="46.57695835456252" lon="6.6920296009629965"><ele></ele><time>2017-9-12T3:49:32Z</time></trkpt>
<trkpt lat="46.57666565850377" lon="6.691674375906587"><ele></ele><time>2017-9-12T3:49:35Z</time></trkpt>
<trkpt lat="46.57640816643834" lon="6.691267769783735"><ele></ele><time>2017-9-12T3:49:38Z</time></trkpt>
<trkpt lat="46.57611588947475" lon="6.690995693206787"><ele></ele><time>2017-9-12T3:49:41Z</time></trkpt>
<trkpt lat="46.57596602104604" lon="6.690926123410463"><ele></ele><time>2017-9-12T3:49:44Z</time></trkpt>
<trkpt lat="46.57540887594223" lon="6.691028885543346"><ele></ele><time>2017-9-12T3:49:47Z</time></trkpt>
<trkpt lat="46.57503864727914" lon="6.690955124795437"><ele></ele><time>2017-9-12T3:49:50Z</time></trkpt>
<trkpt lat="46.57448477111757" lon="6.690761251375079"><ele></ele><time>2017-9-12T3:49:53Z</time></trkpt>
<trkpt lat="46.57403667457402" lon="6.690622866153717"><ele></ele><time>2017-9-12T3:49:56Z</time></trkpt>
<trkpt lat="46.5739166457206" lon="6.690635522827506"><ele></ele><time>2017-9-12T3:49:59Z</time></trkpt>
<trkpt lat="46.5737181622535" lon="6.690670056268573"><ele></ele><time>2017-9-12T3:50:2Z</time></trkpt>
<trkpt lat="46.57353451475501" lon="6.69080869294703"><ele></ele><time>2017-9-12T3:50:5Z</time></trkpt>
<trkpt lat="46.57346553169191" lon="6.690880693495274"><ele></ele><time>2017-9-12T3:50:8Z</time></trkpt>
<trkpt lat="46.57359017059207" lon="6.690993262454867"><ele></ele><time>2017-9-12T3:50:11Z</time></trkpt>
<trkpt lat="46.57404304482043" lon="6.691415123641491"><ele></ele><time>2017-9-12T3:50:14Z</time></trkpt>
<trkpt lat="46.574197858572006" lon="6.692163376137614"><ele></ele><time>2017-9-12T3:50:17Z</time></trkpt>
<trkpt lat="46.57412426546216" lon="6.692946581169963"><ele></ele><time>2017-9-12T3:50:20Z</time></trkpt>
<trkpt lat="46.57376987859607" lon="6.693323850631714"><ele></ele><time>2017-9-12T3:50:23Z</time></trkpt>
<trkpt lat="46.57351884059608" lon="6.6932447254657745"><ele></ele><time>2017-9-12T3:50:26Z</time></trkpt>
<trkpt lat="46.572950379922986" lon="6.693108519539237"><ele></ele><time>2017-9-12T3:50:29Z</time></trkpt>
<trkpt lat="46.57236532308161" lon="6.693066945299506"><ele></ele><time>2017-9-12T3:50:32Z</time></trkpt>
<trkpt lat="46.5717841219157" lon="6.692999973893166"><ele></ele><time>2017-9-12T3:50:35Z</time></trkpt>
<trkpt lat="46.571458484977484" lon="6.692921854555607"><ele></ele><time>2017-9-12T3:50:38Z</time></trkpt>
<trkpt lat="46.57122387550771" lon="6.692969547584653"><ele></ele><time>2017-9-12T3:50:41Z</time></trkpt>
<trkpt lat="46.5711760148406" lon="6.693000560626388"><ele></ele><time>2017-9-12T3:50:44Z</time></trkpt>
<trkpt lat="46.57107392325997" lon="6.6930559650063515"><ele></ele><time>2017-9-12T3:50:47Z</time></trkpt>
<trkpt lat="46.57086756080389" lon="6.693383697420359"><ele></ele><time>2017-9-12T3:50:50Z</time></trkpt>
<trkpt lat="46.570390881970525" lon="6.693691061809659"><ele></ele><time>2017-9-12T3:50:53Z</time></trkpt>
<trkpt lat="46.570012187585235" lon="6.693725595250726"><ele></ele><time>2017-9-12T3:50:56Z</time></trkpt>
<trkpt lat="46.56945453956723" lon="6.693750321865082"><ele></ele><time>2017-9-12T3:50:59Z</time></trkpt>
<trkpt lat="46.568893287330866" lon="6.6935898922383785"><ele></ele><time>2017-9-12T3:51:2Z</time></trkpt>
<trkpt lat="46.568627916276455" lon="6.693477323278785"><ele></ele><time>2017-9-12T3:51:5Z</time></trkpt>
<trkpt lat="46.56846790574491" lon="6.693419655784965"><ele></ele><time>2017-9-12T3:51:8Z</time></trkpt>
<trkpt lat="46.56841853633523" lon="6.693405909463763"><ele></ele><time>2017-9-12T3:51:11Z</time></trkpt>
<trkpt lat="46.568179316818714" lon="6.693366095423698"><ele></ele><time>2017-9-12T3:51:14Z</time></trkpt>
<trkpt lat="46.5678552724421" lon="6.693377746269107"><ele></ele><time>2017-9-12T3:51:17Z</time></trkpt>
<trkpt lat="46.56759459525347" lon="6.693496182560921"><ele></ele><time>2017-9-12T3:51:20Z</time></trkpt>
<trkpt lat="46.56740566715598" lon="6.693645380437374"><ele></ele><time>2017-9-12T3:51:23Z</time></trkpt>
<trkpt lat="46.56709251925349" lon="6.693763229995966"><ele></ele><time>2017-9-12T3:51:26Z</time></trkpt>
<trkpt lat="46.56700350344181" lon="6.693743281066418"><ele></ele><time>2017-9-12T3:51:29Z</time></trkpt>
<trkpt lat="46.56677710823715" lon="6.693650912493467"><ele></ele><time>2017-9-12T3:51:32Z</time></trkpt>
<trkpt lat="46.56644887290895" lon="6.693482268601656"><ele></ele><time>2017-9-12T3:51:35Z</time></trkpt>
<trkpt lat="46.56618936918676" lon="6.693344973027706"><ele></ele><time>2017-9-12T3:51:38Z</time></trkpt>
<trkpt lat="46.56604662537575" lon="6.693247742950916"><ele></ele><time>2017-9-12T3:51:41Z</time></trkpt>
<trkpt lat="46.5659159515053" lon="6.692979857325554"><ele></ele><time>2017-9-12T3:51:44Z</time></trkpt>
<trkpt lat="46.56591880135238" lon="6.692870808765292"><ele></ele><time>2017-9-12T3:51:47Z</time></trkpt>
<trkpt lat="46.56585610471666" lon="6.6926006600260735"><ele></ele><time>2017-9-12T3:51:50Z</time></trkpt>
<trkpt lat="46.56575468368828" lon="6.692247949540615"><ele></ele><time>2017-9-12T3:51:53Z</time></trkpt>
<trkpt lat="46.56555913388729" lon="6.69151084497571"><ele></ele><time>2017-9-12T3:51:56Z</time></trkpt>
<trkpt lat="46.56531983055174" lon="6.690781200304627"><ele></ele><time>2017-9-12T3:51:59Z</time></trkpt>
<trkpt lat="46.56510944478214" lon="6.690148953348398"><ele></ele><time>2017-9-12T3:52:2Z</time></trkpt>
<trkpt lat="46.56503912061453" lon="6.6899000108242035"><ele></ele><time>2017-9-12T3:52:5Z</time></trkpt>
<trkpt lat="46.564844409003854" lon="6.68916055932641"><ele></ele><time>2017-9-12T3:52:8Z</time></trkpt>
<trkpt lat="46.56482454389334" lon="6.689135078340769"><ele></ele><time>2017-9-12T3:52:11Z</time></trkpt>
<trkpt lat="46.56472689472139" lon="6.6891643311828375"><ele></ele><time>2017-9-12T3:52:14Z</time></trkpt>
<trkpt lat="46.56468288972974" lon="6.689228788018227"><ele></ele><time>2017-9-12T3:52:17Z</time></trkpt>
</trkseg></trk></gpx>